DHK442 KLAX-EGNX
Flight info
| Callsign | DHK442 |
|---|---|
| Flight time | N/A |
| Altitude | 29000 |
| Route | OSHNN1 BEALE DCT BAWER/N0481F310 DCT LARVE DCT EKR DCT KD63U DCT SNY DCT ONL J114 GEP DCT SSM DCT YUY DCT MT DCT 52N070W/N0475F330 5430N06000W DCT ENNSO/M081F330 DCT 5730N05000W 59N040W 59N030W 59N020W DCT AGORI/N0466F330 DCT OSBOX DCT APSOV DCT MAKUX |
| Aircraft | B77L/H-SDE1E2E3FGHIJ2J3J4J5M1RWXY/LB1D1 |
Departure
| Time | 2026-05-06 07:11 |
|---|---|
| Airport | Los Angeles International Airport (KLAX) |
Arrival
| Time | N/A |
|---|---|
| Airport | East Midlands Airport (EGNX) |
| Time | Latitude | Longitude | Altitude | Speed | Heading |
|---|---|---|---|---|---|
| 2026-05-06 07:08 | 33.94883 | -118.40426 | 127 ft | 28 kts | 85° |
| 2026-05-06 07:09 | 33.94908 | -118.40175 | 127 ft | 27 kts | 82° |
| 2026-05-06 07:09 | 33.94929 | -118.39982 | 130 ft | 19 kts | 79° |
| 2026-05-06 07:09 | 33.94986 | -118.39917 | 125 ft | 15 kts | 5° |
| 2026-05-06 07:09 | 33.95038 | -118.39962 | 127 ft | 12 kts | 281° |
| 2026-05-06 07:10 | 33.95026 | -118.40115 | 129 ft | 25 kts | 263° |
| 2026-05-06 07:10 | 33.94994 | -118.40416 | 130 ft | 53 kts | 263° |
| 2026-05-06 07:10 | 33.94920 | -118.41143 | 130 ft | 121 kts | 263° |
| 2026-05-06 07:10 | 33.94791 | -118.42391 | 126 ft | 177 kts | 263° |
| 2026-05-06 07:11 | 33.94634 | -118.43987 | 402 ft | 194 kts | 261° |
| 2026-05-06 07:11 | 33.94423 | -118.45629 | 895 ft | 202 kts | 261° |
| 2026-05-06 07:11 | 33.94308 | -118.47297 | 1540 ft | 201 kts | 267° |
| 2026-05-06 07:11 | 33.94248 | -118.49017 | 1906 ft | 215 kts | 268° |
| 2026-05-06 07:12 | 33.94208 | -118.50895 | 2131 ft | 230 kts | 269° |
| 2026-05-06 07:12 | 33.94103 | -118.52891 | 2408 ft | 247 kts | 263° |
| 2026-05-06 07:12 | 33.93920 | -118.54972 | 3011 ft | 251 kts | 263° |
| 2026-05-06 07:12 | 33.93739 | -118.57075 | 3705 ft | 254 kts | 264° |
| 2026-05-06 07:13 | 33.93567 | -118.59210 | 4354 ft | 258 kts | 264° |
| 2026-05-06 07:13 | 33.93300 | -118.61351 | 4937 ft | 261 kts | 249° |
| 2026-05-06 07:13 | 33.92284 | -118.63148 | 5491 ft | 265 kts | 219° |
| 2026-05-06 07:13 | 33.90618 | -118.64104 | 6014 ft | 272 kts | 188° |
| 2026-05-06 07:14 | 33.88727 | -118.64109 | 6647 ft | 272 kts | 175° |
| 2026-05-06 07:14 | 33.86806 | -118.63914 | 7100 ft | 281 kts | 175° |
| 2026-05-06 07:14 | 33.84837 | -118.63754 | 7660 ft | 284 kts | 172° |
| 2026-05-06 07:14 | 33.82980 | -118.63010 | 8078 ft | 284 kts | 144° |
| 2026-05-06 07:15 | 33.81376 | -118.61618 | 8594 ft | 287 kts | 141° |
| 2026-05-06 07:15 | 33.79738 | -118.60242 | 9278 ft | 288 kts | 142° |
| 2026-05-06 07:15 | 33.78082 | -118.58881 | 9962 ft | 289 kts | 141° |
| 2026-05-06 07:15 | 33.76400 | -118.57506 | 10420 ft | 299 kts | 141° |
| 2026-05-06 07:16 | 33.74617 | -118.56050 | 10566 ft | 321 kts | 142° |
| 2026-05-06 07:16 | 33.72709 | -118.54497 | 10738 ft | 342 kts | 142° |
| 2026-05-06 07:16 | 33.70715 | -118.52820 | 10875 ft | 356 kts | 136° |
| 2026-05-06 07:16 | 33.69184 | -118.50470 | 11114 ft | 362 kts | 111° |
| 2026-05-06 07:17 | 33.68344 | -118.47610 | 11493 ft | 368 kts | 105° |
| 2026-05-06 07:17 | 33.67517 | -118.44659 | 12067 ft | 376 kts | 106° |
| 2026-05-06 07:17 | 33.66645 | -118.41679 | 12806 ft | 380 kts | 107° |
| 2026-05-06 07:17 | 33.65752 | -118.38667 | 13530 ft | 385 kts | 107° |
| 2026-05-06 07:18 | 33.64849 | -118.35615 | 14184 ft | 389 kts | 105° |
| 2026-05-06 07:18 | 33.64270 | -118.32464 | 14598 ft | 389 kts | 89° |
| 2026-05-06 07:18 | 33.64383 | -118.29237 | 15073 ft | 389 kts | 83° |
| 2026-05-06 07:18 | 33.64482 | -118.25973 | 15714 ft | 394 kts | 86° |
| 2026-05-06 07:19 | 33.64495 | -118.22686 | 16447 ft | 392 kts | 86° |
| 2026-05-06 07:19 | 33.64910 | -118.19485 | 16865 ft | 391 kts | 66° |
| 2026-05-06 07:19 | 33.66277 | -118.16683 | 17426 ft | 391 kts | 49° |
| 2026-05-06 07:19 | 33.68194 | -118.14449 | 18090 ft | 390 kts | 37° |
| 2026-05-06 07:20 | 33.70372 | -118.12495 | 18711 ft | 392 kts | 36° |
| 2026-05-06 07:20 | 33.72589 | -118.10563 | 19303 ft | 394 kts | 36° |
| 2026-05-06 07:20 | 33.74811 | -118.08628 | 19951 ft | 395 kts | 36° |
| 2026-05-06 07:20 | 33.77033 | -118.06675 | 20561 ft | 396 kts | 36° |
| 2026-05-06 07:21 | 33.79255 | -118.04702 | 21133 ft | 399 kts | 37° |
| 2026-05-06 07:21 | 33.81487 | -118.02706 | 21709 ft | 401 kts | 37° |
| 2026-05-06 07:21 | 33.83726 | -118.00695 | 22324 ft | 403 kts | 37° |
| 2026-05-06 07:21 | 33.85975 | -117.98671 | 22925 ft | 404 kts | 38° |
| 2026-05-06 07:22 | 33.88232 | -117.96639 | 23474 ft | 407 kts | 38° |
| 2026-05-06 07:22 | 33.90503 | -117.94594 | 23934 ft | 410 kts | 38° |
| 2026-05-06 07:22 | 33.92786 | -117.92521 | 24418 ft | 411 kts | 38° |
| 2026-05-06 07:22 | 33.95059 | -117.90442 | 24949 ft | 411 kts | 38° |
| 2026-05-06 07:23 | 33.97337 | -117.88356 | 25456 ft | 412 kts | 38° |
| 2026-05-06 07:23 | 33.99623 | -117.86263 | 25912 ft | 413 kts | 38° |
| 2026-05-06 07:23 | 34.01915 | -117.84165 | 26376 ft | 415 kts | 38° |
| 2026-05-06 07:23 | 34.04216 | -117.82057 | 26830 ft | 416 kts | 39° |
| 2026-05-06 07:24 | 34.06524 | -117.79942 | 27286 ft | 418 kts | 39° |
| 2026-05-06 07:24 | 34.08828 | -117.77794 | 27728 ft | 419 kts | 41° |
| 2026-05-06 07:24 | 34.10858 | -117.75283 | 28138 ft | 419 kts | 51° |
| 2026-05-06 07:24 | 34.12659 | -117.72514 | 28587 ft | 420 kts | 52° |
| 2026-05-06 07:25 | 34.14456 | -117.69721 | 28973 ft | 422 kts | 52° |
| 2026-05-06 07:25 | 34.18145 | -117.64106 | 29146 ft | 428 kts | 51° |
| 2026-05-06 07:26 | 34.21869 | -117.58558 | 29084 ft | 424 kts | 51° |
| 2026-05-06 07:26 | 34.25605 | -117.52994 | 29107 ft | 430 kts | 51° |
| 2026-05-06 07:27 | 34.29380 | -117.47370 | 29098 ft | 432 kts | 51° |
| 2026-05-06 07:27 | 34.33127 | -117.41776 | 29105 ft | 430 kts | 51° |
| 2026-05-06 07:28 | 34.36874 | -117.36171 | 29077 ft | 427 kts | 51° |
| 2026-05-06 07:28 | 34.42445 | -117.27818 | 29063 ft | 424 kts | 51° |
| 2026-05-06 07:29 | 34.46141 | -117.22266 | 29090 ft | 423 kts | 51° |
| 2026-05-06 07:29 | 34.49827 | -117.16721 | 29061 ft | 423 kts | 51° |
| 2026-05-06 07:30 | 34.53522 | -117.11154 | 29045 ft | 424 kts | 51° |
| 2026-05-06 07:30 | 34.57269 | -117.05615 | 29053 ft | 425 kts | 50° |
| 2026-05-06 07:31 | 34.61079 | -117.00101 | 29052 ft | 427 kts | 50° |
| 2026-05-06 07:31 | 34.64896 | -116.94554 | 29047 ft | 428 kts | 50° |
| 2026-05-06 07:32 | 34.68708 | -116.88991 | 29038 ft | 429 kts | 50° |
| 2026-05-06 07:32 | 34.72522 | -116.83408 | 29050 ft | 429 kts | 50° |
| 2026-05-06 07:33 | 34.76337 | -116.77816 | 29055 ft | 429 kts | 50° |
| 2026-05-06 07:33 | 34.79503 | -116.73168 | 29048 ft | 429 kts | 50° |
| 2026-05-06 07:34 | 34.83308 | -116.67577 | 29057 ft | 429 kts | 50° |
| 2026-05-06 07:34 | 34.87784 | -116.61137 | 29040 ft | 428 kts | 47° |
| 2026-05-06 07:35 | 34.91819 | -116.55805 | 29026 ft | 428 kts | 47° |
| 2026-05-06 07:35 | 34.95222 | -116.51333 | 29013 ft | 430 kts | 47° |
| 2026-05-06 07:36 | 34.99280 | -116.45942 | 28990 ft | 433 kts | 47° |
| 2026-05-06 07:36 | 35.03337 | -116.40509 | 28998 ft | 434 kts | 47° |
| 2026-05-06 07:37 | 35.07399 | -116.35051 | 29008 ft | 434 kts | 47° |
| 2026-05-06 07:37 | 35.11433 | -116.29621 | 28977 ft | 434 kts | 47° |
| 2026-05-06 07:38 | 35.15488 | -116.24154 | 28987 ft | 433 kts | 47° |
| 2026-05-06 07:38 | 35.19532 | -116.18696 | 28994 ft | 433 kts | 47° |
| 2026-05-06 07:39 | 35.23570 | -116.13236 | 28972 ft | 433 kts | 47° |
| 2026-05-06 07:39 | 35.27613 | -116.07761 | 28986 ft | 434 kts | 47° |
| 2026-05-06 07:40 | 35.31665 | -116.02264 | 29000 ft | 435 kts | 47° |
| 2026-05-06 07:40 | 35.35719 | -115.96756 | 29009 ft | 436 kts | 47° |
| 2026-05-06 07:41 | 35.39778 | -115.91232 | 29017 ft | 436 kts | 47° |
| 2026-05-06 07:41 | 35.43842 | -115.85692 | 29003 ft | 437 kts | 47° |
| 2026-05-06 07:42 | 35.47906 | -115.80144 | 29005 ft | 437 kts | 47° |
| 2026-05-06 07:42 | 35.51972 | -115.74584 | 28998 ft | 438 kts | 47° |
| 2026-05-06 07:43 | 35.56033 | -115.69021 | 29003 ft | 437 kts | 47° |
| 2026-05-06 07:43 | 35.60089 | -115.63455 | 29029 ft | 437 kts | 47° |
| 2026-05-06 07:44 | 35.64139 | -115.57887 | 29010 ft | 437 kts | 47° |
| 2026-05-06 07:44 | 35.68186 | -115.52317 | 28992 ft | 436 kts | 47° |
| 2026-05-06 07:45 | 35.72219 | -115.46755 | 29000 ft | 435 kts | 47° |
| 2026-05-06 07:45 | 35.76246 | -115.41185 | 29002 ft | 436 kts | 47° |
| 2026-05-06 07:46 | 35.80272 | -115.35608 | 28994 ft | 435 kts | 47° |
| 2026-05-06 07:46 | 35.84292 | -115.30030 | 29006 ft | 435 kts | 47° |
| 2026-05-06 07:47 | 35.88313 | -115.24441 | 28998 ft | 436 kts | 47° |
| 2026-05-06 07:47 | 35.92338 | -115.18837 | 29000 ft | 437 kts | 47° |
| 2026-05-06 07:48 | 35.96341 | -115.13255 | 29001 ft | 437 kts | 47° |
| 2026-05-06 07:48 | 36.00373 | -115.07622 | 29002 ft | 438 kts | 47° |
| 2026-05-06 07:49 | 36.04405 | -115.01980 | 28967 ft | 438 kts | 47° |
| 2026-05-06 07:49 | 36.08444 | -114.96318 | 28945 ft | 439 kts | 47° |
| 2026-05-06 07:50 | 36.12483 | -114.90647 | 28895 ft | 440 kts | 47° |
| 2026-05-06 07:50 | 36.16525 | -114.84963 | 28894 ft | 440 kts | 47° |
| 2026-05-06 07:51 | 36.20445 | -114.79150 | 28883 ft | 441 kts | 51° |
| 2026-05-06 07:51 | 36.24039 | -114.72992 | 28860 ft | 441 kts | 52° |
| 2026-05-06 07:52 | 36.27592 | -114.66795 | 28855 ft | 441 kts | 52° |
| 2026-05-06 07:52 | 36.31162 | -114.60657 | 28843 ft | 442 kts | 52° |
| 2026-05-06 07:53 | 36.34778 | -114.54489 | 28839 ft | 442 kts | 52° |
| 2026-05-06 07:53 | 36.38399 | -114.48322 | 28836 ft | 442 kts | 52° |
| 2026-05-06 07:54 | 36.42016 | -114.42149 | 28840 ft | 442 kts | 52° |
| 2026-05-06 07:54 | 36.45634 | -114.35964 | 28850 ft | 443 kts | 52° |
| 2026-05-06 07:55 | 36.49252 | -114.29766 | 28847 ft | 443 kts | 52° |
| 2026-05-06 07:55 | 36.52868 | -114.23557 | 28851 ft | 443 kts | 52° |
| 2026-05-06 07:56 | 36.56484 | -114.17339 | 28853 ft | 444 kts | 52° |
| 2026-05-06 07:56 | 36.60096 | -114.11115 | 28861 ft | 443 kts | 51° |
| 2026-05-06 07:57 | 36.63704 | -114.04886 | 28866 ft | 444 kts | 51° |
| 2026-05-06 07:57 | 36.67328 | -113.98624 | 28877 ft | 447 kts | 51° |
| 2026-05-06 07:58 | 36.70959 | -113.92333 | 28888 ft | 448 kts | 51° |
| 2026-05-06 07:58 | 36.74593 | -113.86022 | 28882 ft | 448 kts | 51° |
| 2026-05-06 07:59 | 36.78227 | -113.79705 | 28889 ft | 448 kts | 51° |
| 2026-05-06 07:59 | 36.81850 | -113.73394 | 28922 ft | 448 kts | 51° |
| 2026-05-06 08:00 | 36.85473 | -113.67069 | 28932 ft | 448 kts | 51° |
| 2026-05-06 08:00 | 36.89100 | -113.60729 | 28938 ft | 449 kts | 51° |
| 2026-05-06 08:01 | 36.92722 | -113.54383 | 28955 ft | 449 kts | 51° |
| 2026-05-06 08:01 | 36.96345 | -113.48023 | 28953 ft | 449 kts | 51° |
| 2026-05-06 08:02 | 36.99968 | -113.41651 | 28925 ft | 450 kts | 51° |
| 2026-05-06 08:02 | 37.03593 | -113.35265 | 28929 ft | 450 kts | 51° |
| 2026-05-06 08:03 | 37.07217 | -113.28867 | 28950 ft | 450 kts | 51° |
| 2026-05-06 08:03 | 37.10816 | -113.22500 | 28968 ft | 451 kts | 51° |
| 2026-05-06 08:04 | 37.14439 | -113.16082 | 28976 ft | 451 kts | 51° |
| 2026-05-06 08:04 | 37.18056 | -113.09659 | 28970 ft | 452 kts | 51° |
| 2026-05-06 08:05 | 37.21680 | -113.03215 | 28954 ft | 452 kts | 51° |
| 2026-05-06 08:05 | 37.25301 | -112.96758 | 28920 ft | 452 kts | 52° |
| 2026-05-06 08:06 | 37.28913 | -112.90293 | 28882 ft | 452 kts | 51° |
| 2026-05-06 08:06 | 37.32538 | -112.83824 | 28887 ft | 454 kts | 51° |
| 2026-05-06 08:07 | 37.36173 | -112.77311 | 28900 ft | 456 kts | 51° |
| 2026-05-06 08:07 | 37.39815 | -112.70768 | 28879 ft | 457 kts | 51° |
| 2026-05-06 08:08 | 37.43458 | -112.64209 | 28879 ft | 457 kts | 51° |
| 2026-05-06 08:08 | 37.47100 | -112.57641 | 28863 ft | 457 kts | 52° |
| 2026-05-06 08:09 | 37.50736 | -112.51070 | 28866 ft | 457 kts | 52° |
| 2026-05-06 08:09 | 37.54364 | -112.44502 | 28923 ft | 457 kts | 52° |
| 2026-05-06 08:10 | 37.57992 | -112.37921 | 28955 ft | 457 kts | 52° |
| 2026-05-06 08:10 | 37.61592 | -112.31378 | 29003 ft | 457 kts | 52° |
| 2026-05-06 08:11 | 37.65323 | -112.24892 | 29052 ft | 455 kts | 48° |
| 2026-05-06 08:11 | 37.69249 | -112.18635 | 29063 ft | 455 kts | 48° |
| 2026-05-06 08:12 | 37.73186 | -112.12391 | 29080 ft | 454 kts | 48° |
| 2026-05-06 08:12 | 37.77108 | -112.06126 | 29064 ft | 455 kts | 48° |
| 2026-05-06 08:13 | 37.81022 | -111.99837 | 29009 ft | 455 kts | 48° |
| 2026-05-06 08:13 | 37.84935 | -111.93533 | 28954 ft | 456 kts | 48° |
| 2026-05-06 08:14 | 37.88848 | -111.87217 | 28899 ft | 456 kts | 48° |
| 2026-05-06 08:14 | 37.92762 | -111.80889 | 28841 ft | 456 kts | 48° |
| 2026-05-06 08:15 | 37.96673 | -111.74551 | 28844 ft | 457 kts | 48° |
| 2026-05-06 08:15 | 38.00591 | -111.68192 | 28838 ft | 458 kts | 48° |
| 2026-05-06 08:16 | 38.04511 | -111.61816 | 28832 ft | 458 kts | 48° |
| 2026-05-06 08:16 | 38.08429 | -111.55431 | 28833 ft | 458 kts | 48° |
| 2026-05-06 08:17 | 38.12343 | -111.49041 | 28826 ft | 458 kts | 48° |
| 2026-05-06 08:17 | 38.16254 | -111.42643 | 28829 ft | 458 kts | 48° |
| 2026-05-06 08:18 | 38.20166 | -111.36231 | 28809 ft | 459 kts | 48° |
| 2026-05-06 08:18 | 38.24074 | -111.29812 | 28814 ft | 459 kts | 48° |
| 2026-05-06 08:19 | 38.27948 | -111.23437 | 28796 ft | 458 kts | 48° |
| 2026-05-06 08:19 | 38.31841 | -111.17017 | 28799 ft | 458 kts | 48° |
| 2026-05-06 08:20 | 38.35734 | -111.10589 | 28804 ft | 459 kts | 48° |
| 2026-05-06 08:20 | 38.39629 | -111.04141 | 28838 ft | 460 kts | 48° |
| 2026-05-06 08:21 | 38.43531 | -110.97667 | 28861 ft | 461 kts | 48° |
| 2026-05-06 08:21 | 38.47438 | -110.91176 | 28888 ft | 461 kts | 48° |
| 2026-05-06 08:22 | 38.51342 | -110.84673 | 28904 ft | 462 kts | 48° |
| 2026-05-06 08:22 | 38.55245 | -110.78160 | 28902 ft | 462 kts | 48° |
| 2026-05-06 08:23 | 38.59150 | -110.71631 | 28891 ft | 463 kts | 48° |
| 2026-05-06 08:23 | 38.63068 | -110.65072 | 28909 ft | 467 kts | 48° |
| 2026-05-06 08:24 | 38.64374 | -110.62882 | 29094 ft | 469 kts | 48° |
| 2026-05-06 08:24 | 38.66343 | -110.59572 | 29560 ft | 466 kts | 48° |
| 2026-05-06 08:24 | 38.68297 | -110.56283 | 30176 ft | 462 kts | 48° |
| 2026-05-06 08:24 | 38.70232 | -110.53024 | 30687 ft | 459 kts | 48° |
| 2026-05-06 08:25 | 38.74119 | -110.46479 | 30796 ft | 462 kts | 48° |
| 2026-05-06 08:25 | 38.78002 | -110.39923 | 30782 ft | 462 kts | 48° |
| 2026-05-06 08:26 | 38.81881 | -110.33360 | 30780 ft | 461 kts | 48° |
| 2026-05-06 08:26 | 38.85750 | -110.26800 | 30786 ft | 461 kts | 48° |
| 2026-05-06 08:27 | 38.89617 | -110.20231 | 30787 ft | 461 kts | 48° |
| 2026-05-06 08:27 | 38.93482 | -110.13650 | 30791 ft | 462 kts | 48° |
| 2026-05-06 08:28 | 38.97355 | -110.07043 | 30808 ft | 464 kts | 48° |
| 2026-05-06 08:28 | 39.01237 | -110.00407 | 30805 ft | 465 kts | 48° |
| 2026-05-06 08:29 | 39.05115 | -109.93732 | 30785 ft | 467 kts | 50° |
| 2026-05-06 08:29 | 39.08778 | -109.86810 | 30775 ft | 469 kts | 51° |
| 2026-05-06 08:30 | 39.12374 | -109.79805 | 30805 ft | 469 kts | 51° |
| 2026-05-06 08:30 | 39.15956 | -109.72836 | 30782 ft | 470 kts | 51° |
| 2026-05-06 08:31 | 39.19609 | -109.65761 | 30778 ft | 472 kts | 51° |
| 2026-05-06 08:31 | 39.23227 | -109.58751 | 30817 ft | 473 kts | 51° |
| 2026-05-06 08:32 | 39.26869 | -109.51678 | 30791 ft | 473 kts | 50° |
| 2026-05-06 08:32 | 39.30505 | -109.44597 | 30819 ft | 474 kts | 51° |
| 2026-05-06 08:33 | 39.34151 | -109.37486 | 30799 ft | 476 kts | 50° |
| 2026-05-06 08:33 | 39.37805 | -109.30344 | 30810 ft | 477 kts | 51° |
| 2026-05-06 08:34 | 39.43294 | -109.19577 | 30806 ft | 479 kts | 51° |
| 2026-05-06 08:35 | 39.46957 | -109.12375 | 30806 ft | 479 kts | 51° |
| 2026-05-06 08:35 | 39.50626 | -109.05144 | 30838 ft | 482 kts | 51° |
| 2026-05-06 08:36 | 39.54311 | -108.97865 | 30826 ft | 484 kts | 51° |
| 2026-05-06 08:36 | 39.57977 | -108.90604 | 30834 ft | 485 kts | 50° |
| 2026-05-06 08:37 | 39.61663 | -108.83282 | 30836 ft | 484 kts | 50° |
| 2026-05-06 08:37 | 39.65342 | -108.75966 | 30901 ft | 485 kts | 51° |
| 2026-05-06 08:38 | 39.69040 | -108.68598 | 30883 ft | 488 kts | 51° |
| 2026-05-06 08:38 | 39.72757 | -108.61172 | 30876 ft | 492 kts | 51° |
| 2026-05-06 08:39 | 39.76481 | -108.53710 | 30920 ft | 493 kts | 51° |
| 2026-05-06 08:39 | 39.80207 | -108.46225 | 30911 ft | 493 kts | 51° |
| 2026-05-06 08:40 | 39.83934 | -108.38724 | 30925 ft | 495 kts | 51° |
| 2026-05-06 08:40 | 39.87676 | -108.31175 | 30970 ft | 497 kts | 51° |
| 2026-05-06 08:41 | 39.91436 | -108.23573 | 30963 ft | 501 kts | 51° |
| 2026-05-06 08:41 | 39.95209 | -108.15922 | 30972 ft | 503 kts | 51° |
| 2026-05-06 08:42 | 39.98986 | -108.08243 | 30991 ft | 503 kts | 51° |
| 2026-05-06 08:42 | 40.02757 | -108.00557 | 30998 ft | 503 kts | 51° |
| 2026-05-06 08:43 | 40.06318 | -107.92688 | 30994 ft | 507 kts | 59° |
| 2026-05-06 08:43 | 40.08808 | -107.84016 | 30948 ft | 513 kts | 69° |
| 2026-05-06 08:44 | 40.10820 | -107.75091 | 30943 ft | 512 kts | 69° |
| 2026-05-06 08:44 | 40.12848 | -107.66159 | 30949 ft | 514 kts | 69° |
| 2026-05-06 08:45 | 40.14916 | -107.57185 | 30927 ft | 517 kts | 69° |
| 2026-05-06 08:45 | 40.16999 | -107.48172 | 30930 ft | 520 kts | 69° |
| 2026-05-06 08:46 | 40.19083 | -107.39113 | 30950 ft | 520 kts | 69° |
| 2026-05-06 08:46 | 40.21163 | -107.30023 | 30950 ft | 523 kts | 70° |
| 2026-05-06 08:47 | 40.23242 | -107.20896 | 30957 ft | 524 kts | 70° |
| 2026-05-06 08:47 | 40.25316 | -107.11761 | 30938 ft | 524 kts | 70° |
| 2026-05-06 08:48 | 40.27383 | -107.02620 | 30954 ft | 523 kts | 71° |
| 2026-05-06 08:48 | 40.29441 | -106.93472 | 30939 ft | 524 kts | 71° |
| 2026-05-06 08:49 | 40.31493 | -106.84318 | 30960 ft | 524 kts | 71° |
| 2026-05-06 08:49 | 40.33528 | -106.75208 | 30996 ft | 525 kts | 71° |
| 2026-05-06 08:50 | 40.35572 | -106.66014 | 30961 ft | 526 kts | 72° |
| 2026-05-06 08:50 | 40.37611 | -106.56807 | 30962 ft | 525 kts | 72° |
| 2026-05-06 08:51 | 40.39642 | -106.47598 | 30970 ft | 526 kts | 72° |
| 2026-05-06 08:51 | 40.41666 | -106.38381 | 30971 ft | 526 kts | 72° |
| 2026-05-06 08:52 | 40.43684 | -106.29150 | 30975 ft | 527 kts | 73° |
| 2026-05-06 08:52 | 40.45701 | -106.19886 | 31010 ft | 528 kts | 73° |
| 2026-05-06 08:53 | 40.47715 | -106.10594 | 31023 ft | 530 kts | 73° |
| 2026-05-06 08:53 | 40.49729 | -106.01269 | 31047 ft | 531 kts | 73° |
| 2026-05-06 08:54 | 40.51728 | -105.91914 | 31069 ft | 533 kts | 73° |
| 2026-05-06 08:54 | 40.53716 | -105.82498 | 31065 ft | 536 kts | 73° |
| 2026-05-06 08:55 | 40.55700 | -105.73053 | 31106 ft | 537 kts | 73° |
| 2026-05-06 08:55 | 40.57671 | -105.63645 | 31115 ft | 537 kts | 73° |
| 2026-05-06 08:56 | 40.59650 | -105.54163 | 31105 ft | 538 kts | 74° |
| 2026-05-06 08:56 | 40.61622 | -105.44668 | 31120 ft | 538 kts | 74° |
| 2026-05-06 08:57 | 40.63587 | -105.35166 | 31137 ft | 538 kts | 74° |
| 2026-05-06 08:57 | 40.65542 | -105.25664 | 31135 ft | 538 kts | 75° |
| 2026-05-06 08:58 | 40.67494 | -105.16143 | 31141 ft | 539 kts | 75° |
| 2026-05-06 08:58 | 40.69440 | -105.06604 | 31141 ft | 540 kts | 75° |
| 2026-05-06 08:59 | 40.71381 | -104.97039 | 31145 ft | 541 kts | 75° |
| 2026-05-06 08:59 | 40.73318 | -104.87459 | 31156 ft | 541 kts | 75° |
| 2026-05-06 09:00 | 40.75249 | -104.77858 | 31159 ft | 542 kts | 75° |
| 2026-05-06 09:00 | 40.77171 | -104.68253 | 31163 ft | 542 kts | 75° |
| 2026-05-06 09:01 | 40.79087 | -104.58636 | 31186 ft | 542 kts | 75° |
| 2026-05-06 09:01 | 40.80995 | -104.49015 | 31198 ft | 542 kts | 75° |
| 2026-05-06 09:02 | 40.82894 | -104.39395 | 31200 ft | 541 kts | 75° |
| 2026-05-06 09:02 | 40.84771 | -104.29838 | 31223 ft | 541 kts | 76° |
| 2026-05-06 09:03 | 40.86651 | -104.20221 | 31226 ft | 541 kts | 76° |
| 2026-05-06 09:03 | 40.88523 | -104.10597 | 31243 ft | 541 kts | 76° |
| 2026-05-06 09:04 | 40.90388 | -104.00963 | 31252 ft | 541 kts | 76° |
| 2026-05-06 09:04 | 40.92245 | -103.91327 | 31190 ft | 541 kts | 76° |
| 2026-05-06 09:05 | 40.94095 | -103.81676 | 31187 ft | 542 kts | 76° |
| 2026-05-06 09:05 | 40.95941 | -103.71998 | 31114 ft | 544 kts | 77° |
| 2026-05-06 09:06 | 40.97784 | -103.62286 | 31105 ft | 545 kts | 77° |
| 2026-05-06 09:06 | 40.99621 | -103.52558 | 31102 ft | 545 kts | 77° |
| 2026-05-06 09:07 | 41.01455 | -103.42802 | 31090 ft | 547 kts | 77° |
| 2026-05-06 09:07 | 41.03286 | -103.33009 | 31100 ft | 549 kts | 77° |
| 2026-05-06 09:08 | 41.05114 | -103.23182 | 31094 ft | 550 kts | 77° |
| 2026-05-06 09:08 | 41.06936 | -103.13333 | 31104 ft | 551 kts | 77° |
| 2026-05-06 09:09 | 41.08755 | -103.03463 | 31102 ft | 552 kts | 77° |
| 2026-05-06 09:09 | 41.11109 | -102.93790 | 31093 ft | 552 kts | 65° |
| 2026-05-06 09:10 | 41.14335 | -102.84573 | 31100 ft | 551 kts | 64° |
| 2026-05-06 09:10 | 41.17555 | -102.75427 | 31105 ft | 551 kts | 64° |
| 2026-05-06 09:11 | 41.20751 | -102.66173 | 31095 ft | 552 kts | 65° |
| 2026-05-06 09:11 | 41.23921 | -102.56872 | 31086 ft | 553 kts | 65° |
| 2026-05-06 09:12 | 41.27082 | -102.47556 | 31090 ft | 553 kts | 65° |
| 2026-05-06 09:12 | 41.30242 | -102.38220 | 31089 ft | 554 kts | 65° |
| 2026-05-06 09:13 | 41.33401 | -102.28866 | 31111 ft | 555 kts | 65° |
| 2026-05-06 09:13 | 41.36561 | -102.19482 | 31089 ft | 556 kts | 65° |
| 2026-05-06 09:14 | 41.39715 | -102.10077 | 31092 ft | 557 kts | 65° |
| 2026-05-06 09:14 | 41.42867 | -102.00651 | 31091 ft | 557 kts | 65° |
| 2026-05-06 09:15 | 41.45483 | -101.92800 | 31091 ft | 558 kts | 65° |
| 2026-05-06 09:15 | 41.48622 | -101.83349 | 31089 ft | 558 kts | 65° |
| 2026-05-06 09:16 | 41.51758 | -101.73877 | 31104 ft | 558 kts | 65° |
| 2026-05-06 09:16 | 41.54886 | -101.64397 | 31097 ft | 558 kts | 65° |
| 2026-05-06 09:17 | 41.58004 | -101.54915 | 31100 ft | 558 kts | 65° |
| 2026-05-06 09:17 | 41.61114 | -101.45421 | 31103 ft | 558 kts | 65° |
| 2026-05-06 09:18 | 41.64216 | -101.35921 | 31134 ft | 558 kts | 65° |
| 2026-05-06 09:18 | 41.67315 | -101.26397 | 31118 ft | 559 kts | 65° |
| 2026-05-06 09:19 | 41.70410 | -101.16854 | 31110 ft | 559 kts | 65° |
| 2026-05-06 09:19 | 41.73495 | -101.07305 | 31111 ft | 559 kts | 65° |
| 2026-05-06 09:20 | 41.76575 | -100.97735 | 31121 ft | 560 kts | 66° |
| 2026-05-06 09:20 | 41.79648 | -100.88158 | 31119 ft | 559 kts | 66° |
| 2026-05-06 09:21 | 41.82712 | -100.78572 | 31117 ft | 559 kts | 66° |
| 2026-05-06 09:21 | 41.85768 | -100.68979 | 31119 ft | 559 kts | 66° |
| 2026-05-06 09:22 | 41.88795 | -100.59442 | 31117 ft | 559 kts | 66° |
| 2026-05-06 09:22 | 41.91835 | -100.49833 | 31116 ft | 560 kts | 66° |
| 2026-05-06 09:23 | 41.94873 | -100.40192 | 31134 ft | 561 kts | 66° |
| 2026-05-06 09:23 | 41.97909 | -100.30525 | 31135 ft | 562 kts | 66° |
| 2026-05-06 09:24 | 42.00941 | -100.20833 | 31134 ft | 562 kts | 66° |
| 2026-05-06 09:24 | 42.03966 | -100.11129 | 31128 ft | 563 kts | 66° |
| 2026-05-06 09:25 | 42.06987 | -100.01401 | 31131 ft | 564 kts | 66° |
| 2026-05-06 09:25 | 42.10002 | -99.91658 | 31146 ft | 564 kts | 66° |
| 2026-05-06 09:26 | 42.13012 | -99.81895 | 31138 ft | 565 kts | 67° |
| 2026-05-06 09:26 | 42.16019 | -99.72107 | 31136 ft | 566 kts | 67° |
| 2026-05-06 09:27 | 42.19020 | -99.62299 | 31136 ft | 566 kts | 67° |
| 2026-05-06 09:27 | 42.21997 | -99.52536 | 31194 ft | 567 kts | 67° |
| 2026-05-06 09:28 | 42.24988 | -99.42689 | 31135 ft | 568 kts | 67° |
| 2026-05-06 09:28 | 42.27975 | -99.32817 | 31141 ft | 568 kts | 67° |
| 2026-05-06 09:29 | 42.30957 | -99.22927 | 31136 ft | 568 kts | 67° |
| 2026-05-06 09:29 | 42.33929 | -99.13026 | 31142 ft | 568 kts | 67° |
| 2026-05-06 09:30 | 42.36894 | -99.03116 | 31128 ft | 569 kts | 67° |
| 2026-05-06 09:30 | 42.39850 | -98.93197 | 31124 ft | 569 kts | 67° |
| 2026-05-06 09:31 | 42.42802 | -98.83252 | 31113 ft | 569 kts | 67° |
| 2026-05-06 09:31 | 42.45878 | -98.73380 | 31103 ft | 568 kts | 61° |
| 2026-05-06 09:32 | 42.49960 | -98.64269 | 31113 ft | 564 kts | 51° |
| 2026-05-06 09:32 | 42.54932 | -98.56127 | 31125 ft | 559 kts | 44° |
| 2026-05-06 09:33 | 42.60080 | -98.48193 | 31116 ft | 560 kts | 44° |
| 2026-05-06 09:33 | 42.65201 | -98.40202 | 31137 ft | 561 kts | 44° |
| 2026-05-06 09:34 | 42.70288 | -98.32156 | 31132 ft | 561 kts | 45° |
| 2026-05-06 09:34 | 42.75330 | -98.24135 | 31147 ft | 562 kts | 44° |
| 2026-05-06 09:35 | 42.80435 | -98.15996 | 31140 ft | 561 kts | 44° |
| 2026-05-06 09:35 | 42.85463 | -98.07967 | 31141 ft | 560 kts | 44° |
| 2026-05-06 09:36 | 42.90510 | -97.99887 | 31133 ft | 559 kts | 45° |
| 2026-05-06 09:36 | 42.95542 | -97.91808 | 31173 ft | 559 kts | 44° |
| 2026-05-06 09:37 | 43.00573 | -97.83709 | 31144 ft | 559 kts | 44° |
| 2026-05-06 09:37 | 43.05598 | -97.75597 | 31144 ft | 559 kts | 44° |
| 2026-05-06 09:38 | 43.10617 | -97.67471 | 31145 ft | 559 kts | 45° |
| 2026-05-06 09:38 | 43.15627 | -97.59336 | 31157 ft | 559 kts | 45° |
| 2026-05-06 09:39 | 43.20630 | -97.51191 | 31171 ft | 559 kts | 45° |
| 2026-05-06 09:39 | 43.25618 | -97.43047 | 31141 ft | 556 kts | 45° |
| 2026-05-06 09:40 | 43.30581 | -97.34920 | 31132 ft | 554 kts | 45° |
| 2026-05-06 09:40 | 43.37986 | -97.22755 | 31130 ft | 552 kts | 45° |
| 2026-05-06 09:41 | 43.42908 | -97.14642 | 31137 ft | 552 kts | 45° |
| 2026-05-06 09:41 | 43.47817 | -97.06526 | 31108 ft | 551 kts | 45° |
| 2026-05-06 09:42 | 43.52715 | -96.98405 | 31091 ft | 550 kts | 45° |
| 2026-05-06 09:42 | 43.57597 | -96.90287 | 31081 ft | 550 kts | 45° |
| 2026-05-06 09:43 | 43.62468 | -96.82169 | 31119 ft | 549 kts | 45° |
| 2026-05-06 09:43 | 43.67072 | -96.73738 | 31103 ft | 552 kts | 53° |
| 2026-05-06 09:44 | 43.71175 | -96.64806 | 31107 ft | 549 kts | 54° |
| 2026-05-06 09:44 | 43.75204 | -96.55934 | 31091 ft | 548 kts | 54° |
| 2026-05-06 09:45 | 43.79279 | -96.47041 | 31089 ft | 547 kts | 53° |
| 2026-05-06 09:45 | 43.83370 | -96.38155 | 31077 ft | 548 kts | 53° |
| 2026-05-06 09:46 | 43.87466 | -96.29241 | 31087 ft | 549 kts | 54° |
| 2026-05-06 09:46 | 43.91544 | -96.20329 | 31064 ft | 546 kts | 54° |
| 2026-05-06 09:47 | 43.95592 | -96.11444 | 31069 ft | 544 kts | 54° |
| 2026-05-06 09:47 | 43.99623 | -96.02574 | 31084 ft | 542 kts | 54° |
| 2026-05-06 09:48 | 44.03636 | -95.93718 | 31076 ft | 542 kts | 54° |
| 2026-05-06 09:48 | 44.07643 | -95.84850 | 31090 ft | 542 kts | 54° |
| 2026-05-06 09:49 | 44.11636 | -95.75983 | 31076 ft | 539 kts | 54° |
| 2026-05-06 09:49 | 44.15604 | -95.67142 | 31071 ft | 537 kts | 54° |
| 2026-05-06 09:50 | 44.19549 | -95.58327 | 31071 ft | 536 kts | 54° |
| 2026-05-06 09:50 | 44.23483 | -95.49514 | 31078 ft | 536 kts | 54° |
| 2026-05-06 09:51 | 44.27415 | -95.40675 | 31081 ft | 537 kts | 55° |
| 2026-05-06 09:51 | 44.31344 | -95.31816 | 31090 ft | 537 kts | 55° |
| 2026-05-06 09:52 | 44.35259 | -95.22958 | 31064 ft | 534 kts | 55° |
| 2026-05-06 09:52 | 44.39120 | -95.14198 | 31053 ft | 531 kts | 55° |
| 2026-05-06 09:53 | 44.42980 | -95.05412 | 31051 ft | 529 kts | 55° |
| 2026-05-06 09:53 | 44.46825 | -94.96636 | 31056 ft | 529 kts | 55° |
| 2026-05-06 09:54 | 44.50670 | -94.87836 | 31055 ft | 531 kts | 55° |
| 2026-05-06 09:54 | 44.54520 | -94.78995 | 31066 ft | 532 kts | 56° |
| 2026-05-06 09:55 | 44.58360 | -94.70146 | 31066 ft | 530 kts | 56° |
| 2026-05-06 09:55 | 44.62179 | -94.61318 | 31064 ft | 528 kts | 56° |
| 2026-05-06 09:56 | 44.65976 | -94.52514 | 31060 ft | 527 kts | 56° |
| 2026-05-06 09:56 | 44.69771 | -94.43690 | 31076 ft | 528 kts | 56° |
| 2026-05-06 09:57 | 44.73562 | -94.34849 | 31073 ft | 529 kts | 56° |
| 2026-05-06 09:57 | 44.77362 | -94.25957 | 31066 ft | 531 kts | 56° |
| 2026-05-06 09:58 | 44.81164 | -94.17033 | 31043 ft | 532 kts | 56° |
| 2026-05-06 09:58 | 44.84967 | -94.08078 | 31047 ft | 534 kts | 56° |
| 2026-05-06 09:59 | 44.88776 | -93.99079 | 31056 ft | 535 kts | 56° |
| 2026-05-06 09:59 | 44.92585 | -93.90052 | 31057 ft | 536 kts | 56° |
| 2026-05-06 10:00 | 44.96355 | -93.81084 | 31053 ft | 525 kts | 57° |
| 2026-05-06 10:00 | 45.00058 | -93.72253 | 31054 ft | 527 kts | 57° |
| 2026-05-06 10:01 | 45.03824 | -93.63248 | 31046 ft | 531 kts | 57° |
| 2026-05-06 10:01 | 45.07555 | -93.54291 | 31036 ft | 533 kts | 57° |
| 2026-05-06 10:02 | 45.11313 | -93.45245 | 31036 ft | 533 kts | 57° |
| 2026-05-06 10:02 | 45.14659 | -93.35866 | 31058 ft | 535 kts | 66° |
| 2026-05-06 10:03 | 45.16810 | -93.25818 | 31040 ft | 531 kts | 75° |
| 2026-05-06 10:03 | 45.18574 | -93.15684 | 31032 ft | 527 kts | 75° |
| 2026-05-06 10:04 | 45.20042 | -93.07328 | 31012 ft | 525 kts | 75° |
| 2026-05-06 10:04 | 45.21835 | -92.97282 | 31041 ft | 526 kts | 75° |
| 2026-05-06 10:05 | 45.23639 | -92.87206 | 31048 ft | 529 kts | 75° |
| 2026-05-06 10:05 | 45.25449 | -92.77044 | 31061 ft | 532 kts | 75° |
| 2026-05-06 10:06 | 45.27254 | -92.66845 | 31060 ft | 534 kts | 75° |
| 2026-05-06 10:06 | 45.29056 | -92.56588 | 31061 ft | 536 kts | 76° |
| 2026-05-06 10:07 | 45.30851 | -92.46306 | 31051 ft | 537 kts | 76° |
| 2026-05-06 10:07 | 45.32639 | -92.36015 | 31034 ft | 536 kts | 76° |
| 2026-05-06 10:08 | 45.34416 | -92.25727 | 31022 ft | 536 kts | 76° |
| 2026-05-06 10:08 | 45.36185 | -92.15426 | 31019 ft | 537 kts | 76° |
| 2026-05-06 10:09 | 45.37933 | -92.05182 | 31010 ft | 535 kts | 76° |
| 2026-05-06 10:09 | 45.39675 | -91.94917 | 31012 ft | 532 kts | 76° |
| 2026-05-06 10:10 | 45.41398 | -91.84704 | 31018 ft | 530 kts | 76° |
| 2026-05-06 10:10 | 45.43112 | -91.74483 | 31030 ft | 531 kts | 76° |
| 2026-05-06 10:11 | 45.44817 | -91.64250 | 31011 ft | 532 kts | 76° |
| 2026-05-06 10:11 | 45.46521 | -91.53975 | 31001 ft | 534 kts | 77° |
| 2026-05-06 10:12 | 45.48221 | -91.43650 | 31020 ft | 537 kts | 77° |
| 2026-05-06 10:12 | 45.49922 | -91.33264 | 31008 ft | 539 kts | 77° |
| 2026-05-06 10:13 | 45.51619 | -91.22831 | 31005 ft | 541 kts | 77° |
| 2026-05-06 10:13 | 45.53310 | -91.12373 | 30991 ft | 542 kts | 77° |
| 2026-05-06 10:14 | 45.54993 | -91.01900 | 31001 ft | 542 kts | 77° |
| 2026-05-06 10:14 | 45.56667 | -90.91415 | 31006 ft | 542 kts | 77° |
| 2026-05-06 10:15 | 45.58330 | -90.80932 | 31022 ft | 540 kts | 77° |
| 2026-05-06 10:15 | 45.59976 | -90.70500 | 31002 ft | 538 kts | 77° |
| 2026-05-06 10:16 | 45.61605 | -90.60102 | 31006 ft | 536 kts | 78° |
| 2026-05-06 10:16 | 45.63220 | -90.49722 | 30997 ft | 535 kts | 78° |
| 2026-05-06 10:17 | 45.64826 | -90.39338 | 31008 ft | 535 kts | 78° |
| 2026-05-06 10:17 | 45.66428 | -90.28914 | 31010 ft | 539 kts | 78° |
| 2026-05-06 10:18 | 45.68031 | -90.18413 | 31010 ft | 543 kts | 78° |
| 2026-05-06 10:18 | 45.69635 | -90.07835 | 31002 ft | 545 kts | 78° |
| 2026-05-06 10:19 | 45.71235 | -89.97216 | 30910 ft | 549 kts | 78° |
| 2026-05-06 10:19 | 45.72841 | -89.86482 | 30975 ft | 562 kts | 79° |
| 2026-05-06 10:20 | 45.74473 | -89.75499 | 30959 ft | 564 kts | 79° |
| 2026-05-06 10:20 | 45.76093 | -89.64527 | 30952 ft | 563 kts | 79° |
| 2026-05-06 10:21 | 45.77697 | -89.53576 | 31004 ft | 559 kts | 79° |
| 2026-05-06 10:21 | 45.79262 | -89.42821 | 30939 ft | 546 kts | 79° |
| 2026-05-06 10:22 | 45.80801 | -89.32176 | 30950 ft | 546 kts | 79° |
| 2026-05-06 10:22 | 45.82332 | -89.21500 | 30943 ft | 548 kts | 79° |
| 2026-05-06 10:23 | 45.83871 | -89.10688 | 30951 ft | 560 kts | 79° |
| 2026-05-06 10:23 | 45.85423 | -88.99715 | 30969 ft | 561 kts | 79° |
| 2026-05-06 10:24 | 45.86963 | -88.88748 | 30962 ft | 560 kts | 79° |
| 2026-05-06 10:24 | 45.88488 | -88.77808 | 30943 ft | 559 kts | 79° |
| 2026-05-06 10:25 | 45.90003 | -88.66859 | 30969 ft | 560 kts | 80° |
| 2026-05-06 10:25 | 45.91509 | -88.55883 | 30973 ft | 561 kts | 80° |
| 2026-05-06 10:26 | 45.93010 | -88.44875 | 30964 ft | 563 kts | 80° |
| 2026-05-06 10:26 | 45.94504 | -88.33820 | 30955 ft | 564 kts | 80° |
| 2026-05-06 10:27 | 45.95990 | -88.22743 | 30998 ft | 565 kts | 80° |
| 2026-05-06 10:27 | 45.97458 | -88.11719 | 30930 ft | 564 kts | 80° |
| 2026-05-06 10:28 | 45.98919 | -88.00672 | 30910 ft | 561 kts | 80° |
| 2026-05-06 10:28 | 46.00363 | -87.89659 | 30954 ft | 559 kts | 81° |
| 2026-05-06 10:29 | 46.01793 | -87.78654 | 30965 ft | 560 kts | 81° |
| 2026-05-06 10:29 | 46.03214 | -87.67635 | 30982 ft | 561 kts | 81° |
| 2026-05-06 10:30 | 46.04630 | -87.56575 | 30957 ft | 562 kts | 81° |
| 2026-05-06 10:30 | 46.06039 | -87.45480 | 30973 ft | 565 kts | 81° |
| 2026-05-06 10:31 | 46.07443 | -87.34326 | 30973 ft | 567 kts | 81° |
| 2026-05-06 10:31 | 46.08842 | -87.23131 | 30965 ft | 568 kts | 81° |
| 2026-05-06 10:32 | 46.10231 | -87.11919 | 30977 ft | 568 kts | 81° |
| 2026-05-06 10:32 | 46.11607 | -87.00711 | 30981 ft | 568 kts | 81° |
| 2026-05-06 10:33 | 46.12972 | -86.89503 | 31008 ft | 567 kts | 81° |
| 2026-05-06 10:33 | 46.14325 | -86.78305 | 30932 ft | 566 kts | 81° |
| 2026-05-06 10:34 | 46.15662 | -86.67131 | 30961 ft | 565 kts | 82° |
| 2026-05-06 10:34 | 46.16988 | -86.55959 | 30958 ft | 565 kts | 82° |
| 2026-05-06 10:35 | 46.18304 | -86.44772 | 30955 ft | 566 kts | 82° |
| 2026-05-06 10:35 | 46.19611 | -86.33567 | 30953 ft | 566 kts | 82° |
| 2026-05-06 10:36 | 46.20907 | -86.22347 | 30945 ft | 567 kts | 82° |
| 2026-05-06 10:36 | 46.22196 | -86.11098 | 30944 ft | 568 kts | 82° |
| 2026-05-06 10:37 | 46.23475 | -85.99831 | 30959 ft | 569 kts | 82° |
| 2026-05-06 10:37 | 46.24741 | -85.88579 | 30935 ft | 566 kts | 82° |
| 2026-05-06 10:38 | 46.25981 | -85.77454 | 30924 ft | 563 kts | 82° |
| 2026-05-06 10:38 | 46.27221 | -85.66227 | 30918 ft | 561 kts | 83° |
| 2026-05-06 10:39 | 46.28430 | -85.55173 | 30942 ft | 560 kts | 83° |
| 2026-05-06 10:39 | 46.29634 | -85.44068 | 30907 ft | 559 kts | 83° |
| 2026-05-06 10:40 | 46.30824 | -85.32982 | 30905 ft | 557 kts | 83° |
| 2026-05-06 10:40 | 46.32001 | -85.21914 | 30951 ft | 556 kts | 83° |
| 2026-05-06 10:41 | 46.33168 | -85.10838 | 30948 ft | 557 kts | 83° |
| 2026-05-06 10:41 | 46.34326 | -84.99734 | 30956 ft | 559 kts | 83° |
| 2026-05-06 10:42 | 46.35478 | -84.88592 | 30949 ft | 561 kts | 83° |
| 2026-05-06 10:42 | 46.36622 | -84.77410 | 30890 ft | 562 kts | 83° |
| 2026-05-06 10:43 | 46.37756 | -84.66213 | 30924 ft | 562 kts | 83° |
| 2026-05-06 10:44 | 46.39441 | -84.49373 | 30924 ft | 564 kts | 84° |
| 2026-05-06 10:44 | 46.40635 | -84.38129 | 30919 ft | 565 kts | 79° |
| 2026-05-06 10:45 | 46.42888 | -84.27291 | 30933 ft | 566 kts | 68° |
| 2026-05-06 10:45 | 46.46265 | -84.17015 | 30909 ft | 564 kts | 60° |
| 2026-05-06 10:46 | 46.49968 | -84.06978 | 30905 ft | 564 kts | 60° |
| 2026-05-06 10:46 | 46.53644 | -83.96905 | 30921 ft | 564 kts | 60° |
| 2026-05-06 10:47 | 46.57267 | -83.86800 | 30921 ft | 564 kts | 61° |
| 2026-05-06 10:47 | 46.60870 | -83.76656 | 30926 ft | 565 kts | 61° |
| 2026-05-06 10:48 | 46.64469 | -83.66486 | 30928 ft | 566 kts | 61° |
| 2026-05-06 10:48 | 46.68066 | -83.56298 | 30923 ft | 566 kts | 61° |
| 2026-05-06 10:49 | 46.71660 | -83.46086 | 30916 ft | 566 kts | 61° |
| 2026-05-06 10:49 | 46.75247 | -83.35851 | 30927 ft | 567 kts | 61° |
| 2026-05-06 10:50 | 46.78823 | -83.25607 | 30961 ft | 567 kts | 61° |
| 2026-05-06 10:50 | 46.82396 | -83.15335 | 30924 ft | 567 kts | 62° |
| 2026-05-06 10:51 | 46.85951 | -83.05072 | 30894 ft | 566 kts | 62° |
| 2026-05-06 10:51 | 46.89494 | -82.94802 | 30926 ft | 566 kts | 62° |
| 2026-05-06 10:52 | 46.93029 | -82.84517 | 30925 ft | 566 kts | 62° |
| 2026-05-06 10:52 | 46.96555 | -82.74220 | 30947 ft | 566 kts | 62° |
| 2026-05-06 10:53 | 46.99482 | -82.65637 | 30922 ft | 566 kts | 62° |
| 2026-05-06 10:53 | 47.02992 | -82.55307 | 30906 ft | 566 kts | 62° |
| 2026-05-06 10:54 | 47.06491 | -82.44975 | 30915 ft | 566 kts | 62° |
| 2026-05-06 10:54 | 47.09984 | -82.34616 | 30911 ft | 567 kts | 62° |
| 2026-05-06 10:55 | 47.13470 | -82.24235 | 30942 ft | 567 kts | 62° |
| 2026-05-06 10:55 | 47.16949 | -82.13836 | 30873 ft | 567 kts | 63° |
| 2026-05-06 10:56 | 47.20387 | -82.03514 | 30900 ft | 566 kts | 63° |
| 2026-05-06 10:56 | 47.23842 | -81.93104 | 30907 ft | 566 kts | 63° |
| 2026-05-06 10:57 | 47.27292 | -81.82668 | 30897 ft | 567 kts | 63° |
| 2026-05-06 10:57 | 47.30733 | -81.72214 | 30948 ft | 567 kts | 63° |
| 2026-05-06 10:58 | 47.34163 | -81.61752 | 30884 ft | 566 kts | 63° |
| 2026-05-06 10:58 | 47.37573 | -81.51303 | 30899 ft | 565 kts | 63° |
| 2026-05-06 10:59 | 47.40972 | -81.40850 | 30890 ft | 565 kts | 63° |
| 2026-05-06 10:59 | 47.44361 | -81.30385 | 30893 ft | 565 kts | 63° |
| 2026-05-06 11:00 | 47.47740 | -81.19909 | 30908 ft | 565 kts | 64° |
| 2026-05-06 11:00 | 47.51108 | -81.09420 | 30890 ft | 564 kts | 64° |
| 2026-05-06 11:01 | 47.54463 | -80.98931 | 30877 ft | 563 kts | 64° |
| 2026-05-06 11:01 | 47.57802 | -80.88450 | 30881 ft | 562 kts | 64° |
| 2026-05-06 11:02 | 47.61128 | -80.77966 | 30866 ft | 562 kts | 64° |
| 2026-05-06 11:02 | 47.64441 | -80.67479 | 30904 ft | 562 kts | 64° |
| 2026-05-06 11:03 | 47.67728 | -80.57030 | 30873 ft | 562 kts | 64° |
| 2026-05-06 11:03 | 47.71026 | -80.46506 | 30851 ft | 562 kts | 64° |
| 2026-05-06 11:04 | 47.74305 | -80.35992 | 30842 ft | 560 kts | 64° |
| 2026-05-06 11:04 | 47.77569 | -80.25487 | 30804 ft | 560 kts | 64° |
| 2026-05-06 11:05 | 47.80830 | -80.14946 | 30870 ft | 562 kts | 65° |
| 2026-05-06 11:05 | 47.84092 | -80.04360 | 30840 ft | 563 kts | 65° |
| 2026-05-06 11:06 | 47.87346 | -79.93752 | 30832 ft | 562 kts | 65° |
| 2026-05-06 11:06 | 47.90580 | -79.83165 | 30842 ft | 560 kts | 65° |
| 2026-05-06 11:07 | 47.93797 | -79.72587 | 30829 ft | 560 kts | 65° |
| 2026-05-06 11:07 | 47.97009 | -79.61982 | 30881 ft | 562 kts | 65° |
| 2026-05-06 11:08 | 48.00216 | -79.51345 | 30835 ft | 562 kts | 65° |
| 2026-05-06 11:08 | 48.03404 | -79.40729 | 30835 ft | 559 kts | 65° |
| 2026-05-06 11:09 | 48.06570 | -79.30139 | 30793 ft | 557 kts | 66° |
| 2026-05-06 11:09 | 48.09739 | -79.19494 | 30829 ft | 565 kts | 66° |
| 2026-05-06 11:10 | 48.12938 | -79.08700 | 30807 ft | 567 kts | 66° |
| 2026-05-06 11:10 | 48.16072 | -78.98084 | 30780 ft | 555 kts | 66° |
| 2026-05-06 11:11 | 48.19567 | -78.87840 | 30794 ft | 551 kts | 58° |
| 2026-05-06 11:11 | 48.23528 | -78.77983 | 30782 ft | 556 kts | 57° |
| 2026-05-06 11:12 | 48.27571 | -78.67926 | 30842 ft | 567 kts | 58° |
| 2026-05-06 11:12 | 48.31597 | -78.57744 | 30820 ft | 566 kts | 58° |
| 2026-05-06 11:13 | 48.35578 | -78.47563 | 30821 ft | 564 kts | 58° |
| 2026-05-06 11:13 | 48.39535 | -78.37399 | 30827 ft | 563 kts | 58° |
| 2026-05-06 11:14 | 48.43480 | -78.27238 | 30795 ft | 562 kts | 58° |
| 2026-05-06 11:14 | 48.47463 | -78.16952 | 30870 ft | 572 kts | 58° |
| 2026-05-06 11:15 | 48.51422 | -78.06687 | 30818 ft | 562 kts | 59° |
| 2026-05-06 11:15 | 48.55333 | -77.96504 | 30824 ft | 561 kts | 59° |
| 2026-05-06 11:16 | 48.59245 | -77.86279 | 30826 ft | 563 kts | 59° |
| 2026-05-06 11:16 | 48.63158 | -77.76012 | 30785 ft | 564 kts | 59° |
| 2026-05-06 11:17 | 48.67073 | -77.65702 | 30834 ft | 566 kts | 59° |
| 2026-05-06 11:17 | 48.70985 | -77.55359 | 30809 ft | 566 kts | 59° |
| 2026-05-06 11:18 | 48.74878 | -77.45021 | 30807 ft | 564 kts | 59° |
| 2026-05-06 11:18 | 48.78753 | -77.34695 | 30802 ft | 562 kts | 59° |
| 2026-05-06 11:19 | 48.82606 | -77.24386 | 30845 ft | 561 kts | 59° |
| 2026-05-06 11:19 | 48.86434 | -77.14103 | 30806 ft | 558 kts | 59° |
| 2026-05-06 11:20 | 48.90244 | -77.03831 | 30801 ft | 558 kts | 60° |
| 2026-05-06 11:20 | 48.94024 | -76.93599 | 30802 ft | 559 kts | 60° |
| 2026-05-06 11:21 | 48.97826 | -76.83266 | 30800 ft | 561 kts | 60° |
| 2026-05-06 11:21 | 49.01628 | -76.72891 | 30794 ft | 560 kts | 60° |
| 2026-05-06 11:22 | 49.05404 | -76.62546 | 30765 ft | 558 kts | 60° |
| 2026-05-06 11:22 | 49.09170 | -76.52188 | 30793 ft | 559 kts | 60° |
| 2026-05-06 11:23 | 49.12945 | -76.41766 | 30801 ft | 562 kts | 60° |
| 2026-05-06 11:23 | 49.16727 | -76.31279 | 30833 ft | 563 kts | 60° |
| 2026-05-06 11:24 | 49.20445 | -76.20927 | 30787 ft | 550 kts | 60° |
| 2026-05-06 11:24 | 49.24119 | -76.10659 | 30779 ft | 550 kts | 60° |
| 2026-05-06 11:25 | 49.27789 | -76.00364 | 30784 ft | 552 kts | 60° |
| 2026-05-06 11:25 | 49.31459 | -75.90025 | 30785 ft | 553 kts | 61° |
| 2026-05-06 11:26 | 49.35127 | -75.79650 | 30789 ft | 553 kts | 61° |
| 2026-05-06 11:26 | 49.38778 | -75.69283 | 30769 ft | 551 kts | 61° |
| 2026-05-06 11:27 | 49.42403 | -75.58947 | 30768 ft | 549 kts | 61° |
| 2026-05-06 11:27 | 49.46025 | -75.48577 | 30766 ft | 556 kts | 61° |
| 2026-05-06 11:28 | 49.49695 | -75.38029 | 30811 ft | 559 kts | 61° |
| 2026-05-06 11:28 | 49.53284 | -75.27668 | 30766 ft | 546 kts | 61° |
| 2026-05-06 11:29 | 49.56845 | -75.17348 | 30770 ft | 546 kts | 62° |
| 2026-05-06 11:29 | 49.60405 | -75.06991 | 30770 ft | 547 kts | 62° |
| 2026-05-06 11:30 | 49.63962 | -74.96599 | 30733 ft | 549 kts | 62° |
| 2026-05-06 11:30 | 49.67535 | -74.86117 | 30772 ft | 553 kts | 62° |
| 2026-05-06 11:31 | 49.71116 | -74.75568 | 30745 ft | 555 kts | 62° |
| 2026-05-06 11:31 | 49.74686 | -74.65007 | 30718 ft | 554 kts | 62° |
| 2026-05-06 11:32 | 49.78244 | -74.54458 | 30733 ft | 552 kts | 61° |
| 2026-05-06 11:32 | 49.82378 | -74.44513 | 30730 ft | 548 kts | 49° |
| 2026-05-06 11:33 | 49.87237 | -74.35466 | 30722 ft | 546 kts | 47° |
| 2026-05-06 11:33 | 49.92110 | -74.26444 | 30752 ft | 546 kts | 48° |
| 2026-05-06 11:34 | 49.96954 | -74.17336 | 30762 ft | 548 kts | 49° |
| 2026-05-06 11:34 | 50.01779 | -74.08153 | 30767 ft | 549 kts | 49° |
| 2026-05-06 11:35 | 50.06571 | -73.98991 | 30760 ft | 550 kts | 49° |
| 2026-05-06 11:35 | 50.11397 | -73.89738 | 30759 ft | 551 kts | 49° |
| 2026-05-06 11:36 | 50.16219 | -73.80467 | 30762 ft | 550 kts | 49° |
| 2026-05-06 11:36 | 50.21031 | -73.71183 | 30749 ft | 550 kts | 49° |
| 2026-05-06 11:37 | 50.25834 | -73.61885 | 30767 ft | 549 kts | 49° |
| 2026-05-06 11:37 | 50.30625 | -73.52577 | 30763 ft | 549 kts | 49° |
| 2026-05-06 11:38 | 50.35410 | -73.43247 | 30769 ft | 550 kts | 49° |
| 2026-05-06 11:38 | 50.40189 | -73.33894 | 30774 ft | 550 kts | 49° |
| 2026-05-06 11:39 | 50.44958 | -73.24527 | 30765 ft | 549 kts | 49° |
| 2026-05-06 11:39 | 50.49707 | -73.15166 | 30764 ft | 548 kts | 50° |
| 2026-05-06 11:40 | 50.54443 | -73.05798 | 30763 ft | 547 kts | 50° |
| 2026-05-06 11:40 | 50.59166 | -72.96420 | 30779 ft | 547 kts | 50° |
| 2026-05-06 11:41 | 50.63890 | -72.87009 | 30767 ft | 548 kts | 50° |
| 2026-05-06 11:41 | 50.68615 | -72.77562 | 30771 ft | 549 kts | 50° |
| 2026-05-06 11:42 | 50.73339 | -72.68080 | 30774 ft | 550 kts | 50° |
| 2026-05-06 11:42 | 50.77259 | -72.60187 | 30790 ft | 549 kts | 50° |
| 2026-05-06 11:43 | 50.81958 | -72.50691 | 30765 ft | 547 kts | 50° |
| 2026-05-06 11:43 | 50.86621 | -72.41234 | 30766 ft | 544 kts | 50° |
| 2026-05-06 11:44 | 50.93575 | -72.27067 | 30773 ft | 542 kts | 51° |
| 2026-05-06 11:44 | 50.98202 | -72.17601 | 30783 ft | 544 kts | 51° |
| 2026-05-06 11:45 | 51.02835 | -72.08087 | 30772 ft | 546 kts | 51° |
| 2026-05-06 11:45 | 51.07478 | -71.98516 | 30774 ft | 547 kts | 51° |
| 2026-05-06 11:46 | 51.12122 | -71.88908 | 30803 ft | 548 kts | 51° |
| 2026-05-06 11:46 | 51.16722 | -71.79353 | 30759 ft | 546 kts | 51° |
| 2026-05-06 11:47 | 51.21320 | -71.69766 | 30758 ft | 543 kts | 51° |
| 2026-05-06 11:47 | 51.25887 | -71.60211 | 30760 ft | 540 kts | 51° |
| 2026-05-06 11:48 | 51.30454 | -71.50623 | 30810 ft | 546 kts | 52° |
| 2026-05-06 11:48 | 51.35048 | -71.40942 | 30773 ft | 545 kts | 52° |
| 2026-05-06 11:49 | 51.39606 | -71.31298 | 30756 ft | 541 kts | 52° |
| 2026-05-06 11:49 | 51.44132 | -71.21688 | 30769 ft | 539 kts | 52° |
| 2026-05-06 11:50 | 51.48643 | -71.12073 | 30789 ft | 540 kts | 52° |
| 2026-05-06 11:50 | 51.53156 | -71.02417 | 30778 ft | 541 kts | 52° |
| 2026-05-06 11:51 | 51.57672 | -70.92721 | 30779 ft | 542 kts | 52° |
| 2026-05-06 11:51 | 51.62185 | -70.82993 | 30738 ft | 543 kts | 52° |
| 2026-05-06 11:52 | 51.66701 | -70.73222 | 30802 ft | 544 kts | 53° |
| 2026-05-06 11:52 | 51.71216 | -70.63417 | 30777 ft | 545 kts | 53° |
| 2026-05-06 11:53 | 51.75731 | -70.53573 | 30774 ft | 546 kts | 53° |
| 2026-05-06 11:53 | 51.80235 | -70.43716 | 30770 ft | 545 kts | 53° |
| 2026-05-06 11:54 | 51.84725 | -70.33851 | 30776 ft | 544 kts | 53° |
| 2026-05-06 11:54 | 51.89200 | -70.23980 | 30781 ft | 544 kts | 53° |
| 2026-05-06 11:55 | 51.93632 | -70.14167 | 30780 ft | 543 kts | 53° |
| 2026-05-06 11:55 | 51.98088 | -70.04268 | 30756 ft | 543 kts | 53° |
| 2026-05-06 11:56 | 52.02056 | -69.93831 | 30826 ft | 544 kts | 64° |
| 2026-05-06 11:56 | 52.05400 | -69.82768 | 30801 ft | 547 kts | 65° |
| 2026-05-06 11:57 | 52.08731 | -69.71613 | 30784 ft | 549 kts | 65° |
| 2026-05-06 11:57 | 52.12097 | -69.60460 | 30782 ft | 549 kts | 65° |
| 2026-05-06 11:58 | 52.15474 | -69.49323 | 30779 ft | 548 kts | 65° |
| 2026-05-06 11:58 | 52.18839 | -69.38192 | 30804 ft | 547 kts | 65° |
| 2026-05-06 11:59 | 52.22180 | -69.27075 | 30784 ft | 546 kts | 65° |
| 2026-05-06 11:59 | 52.25502 | -69.15962 | 30780 ft | 544 kts | 65° |
| 2026-05-06 12:00 | 52.28804 | -69.04857 | 30781 ft | 543 kts | 65° |
| 2026-05-06 12:00 | 52.32093 | -68.93748 | 30793 ft | 543 kts | 65° |
| 2026-05-06 12:01 | 52.35347 | -68.82706 | 30791 ft | 543 kts | 65° |
| 2026-05-06 12:01 | 52.38612 | -68.71580 | 30775 ft | 541 kts | 66° |
| 2026-05-06 12:02 | 52.41855 | -68.60475 | 30745 ft | 540 kts | 66° |
| 2026-05-06 12:02 | 52.45089 | -68.49346 | 30771 ft | 542 kts | 66° |
| 2026-05-06 12:03 | 52.48331 | -68.38138 | 30772 ft | 545 kts | 66° |
| 2026-05-06 12:03 | 52.51576 | -68.26865 | 30769 ft | 546 kts | 66° |
| 2026-05-06 12:04 | 52.54805 | -68.15596 | 30758 ft | 544 kts | 66° |
| 2026-05-06 12:04 | 52.58012 | -68.04352 | 30750 ft | 542 kts | 66° |
| 2026-05-06 12:05 | 52.61195 | -67.93139 | 30723 ft | 540 kts | 67° |
| 2026-05-06 12:05 | 52.64365 | -67.81911 | 30757 ft | 542 kts | 67° |
| 2026-05-06 12:06 | 52.67542 | -67.70605 | 30753 ft | 545 kts | 67° |
| 2026-05-06 12:06 | 52.70724 | -67.59230 | 30755 ft | 547 kts | 67° |
| 2026-05-06 12:07 | 52.73902 | -67.47815 | 30735 ft | 548 kts | 67° |
| 2026-05-06 12:07 | 52.77067 | -67.36390 | 30727 ft | 547 kts | 68° |
| 2026-05-06 12:08 | 52.80215 | -67.24972 | 30683 ft | 546 kts | 68° |
| 2026-05-06 12:08 | 52.83347 | -67.13550 | 30696 ft | 546 kts | 68° |
| 2026-05-06 12:09 | 52.86471 | -67.02104 | 30680 ft | 546 kts | 68° |
| 2026-05-06 12:09 | 52.89591 | -66.90613 | 30678 ft | 548 kts | 68° |
| 2026-05-06 12:10 | 52.92704 | -66.79091 | 30674 ft | 549 kts | 68° |
| 2026-05-06 12:10 | 52.95811 | -66.67534 | 30697 ft | 549 kts | 68° |
| 2026-05-06 12:11 | 52.98908 | -66.55958 | 30715 ft | 548 kts | 68° |
| 2026-05-06 12:11 | 53.01985 | -66.44398 | 30710 ft | 548 kts | 69° |
| 2026-05-06 12:12 | 53.05039 | -66.32864 | 30726 ft | 549 kts | 69° |
| 2026-05-06 12:12 | 53.08108 | -66.21210 | 30728 ft | 552 kts | 69° |
| 2026-05-06 12:13 | 53.11182 | -66.09483 | 30731 ft | 554 kts | 69° |
| 2026-05-06 12:13 | 53.14246 | -65.97733 | 30717 ft | 553 kts | 69° |
| 2026-05-06 12:14 | 53.17291 | -65.85996 | 30711 ft | 551 kts | 69° |
| 2026-05-06 12:14 | 53.20316 | -65.74276 | 30680 ft | 550 kts | 69° |
| 2026-05-06 12:15 | 53.23329 | -65.62533 | 30721 ft | 552 kts | 70° |
| 2026-05-06 12:15 | 53.26350 | -65.50701 | 30726 ft | 555 kts | 70° |
| 2026-05-06 12:16 | 53.29370 | -65.38806 | 30718 ft | 557 kts | 70° |
| 2026-05-06 12:16 | 53.32386 | -65.26876 | 30714 ft | 556 kts | 70° |
| 2026-05-06 12:17 | 53.35380 | -65.14964 | 30708 ft | 555 kts | 70° |
| 2026-05-06 12:17 | 53.38357 | -65.03053 | 30662 ft | 554 kts | 70° |
| 2026-05-06 12:18 | 53.41326 | -64.91098 | 30718 ft | 564 kts | 70° |
| 2026-05-06 12:18 | 53.44348 | -64.78873 | 30712 ft | 563 kts | 71° |
| 2026-05-06 12:19 | 53.47313 | -64.66824 | 30705 ft | 561 kts | 71° |
| 2026-05-06 12:19 | 53.50277 | -64.54709 | 30693 ft | 560 kts | 71° |
| 2026-05-06 12:20 | 53.53220 | -64.42606 | 30700 ft | 559 kts | 71° |
| 2026-05-06 12:20 | 53.56143 | -64.30514 | 30612 ft | 558 kts | 71° |
| 2026-05-06 12:21 | 53.59075 | -64.18312 | 30683 ft | 568 kts | 71° |
| 2026-05-06 12:21 | 53.62029 | -64.05955 | 30663 ft | 568 kts | 71° |
| 2026-05-06 12:22 | 53.64963 | -63.93628 | 30674 ft | 566 kts | 72° |
| 2026-05-06 12:22 | 53.67875 | -63.81315 | 30701 ft | 564 kts | 72° |
| 2026-05-06 12:23 | 53.70762 | -63.69031 | 30695 ft | 562 kts | 72° |
| 2026-05-06 12:23 | 53.73628 | -63.56772 | 30697 ft | 560 kts | 72° |
| 2026-05-06 12:24 | 53.76495 | -63.44418 | 30708 ft | 572 kts | 72° |
| 2026-05-06 12:24 | 53.79405 | -63.31808 | 30704 ft | 577 kts | 72° |
| 2026-05-06 12:25 | 53.82309 | -63.19182 | 30708 ft | 574 kts | 72° |
| 2026-05-06 12:25 | 53.85182 | -63.06608 | 30689 ft | 571 kts | 73° |
| 2026-05-06 12:26 | 53.88023 | -62.94089 | 30681 ft | 568 kts | 73° |
| 2026-05-06 12:26 | 53.90836 | -62.81615 | 30691 ft | 565 kts | 73° |
| 2026-05-06 12:27 | 53.93623 | -62.69176 | 30662 ft | 574 kts | 73° |
| 2026-05-06 12:27 | 53.96468 | -62.56392 | 30683 ft | 579 kts | 73° |
| 2026-05-06 12:28 | 53.99294 | -62.43667 | 30677 ft | 572 kts | 73° |
| 2026-05-06 12:28 | 54.02075 | -62.31052 | 30672 ft | 568 kts | 73° |
| 2026-05-06 12:29 | 54.04829 | -62.18461 | 30672 ft | 568 kts | 74° |
| 2026-05-06 12:29 | 54.07572 | -62.05833 | 30679 ft | 571 kts | 74° |
| 2026-05-06 12:30 | 54.10320 | -61.93117 | 30670 ft | 573 kts | 74° |
| 2026-05-06 12:30 | 54.13065 | -61.80342 | 30653 ft | 574 kts | 74° |
| 2026-05-06 12:31 | 54.15798 | -61.67549 | 30655 ft | 574 kts | 74° |
| 2026-05-06 12:31 | 54.18511 | -61.54764 | 30640 ft | 572 kts | 74° |
| 2026-05-06 12:32 | 54.20749 | -61.44152 | 30672 ft | 571 kts | 74° |
| 2026-05-06 12:32 | 54.23409 | -61.31487 | 30634 ft | 561 kts | 74° |
| 2026-05-06 12:33 | 54.26020 | -61.18953 | 30552 ft | 561 kts | 75° |
| 2026-05-06 12:33 | 54.29087 | -61.04085 | 30635 ft | 579 kts | 75° |
| 2026-05-06 12:34 | 54.31773 | -60.91024 | 30625 ft | 581 kts | 75° |
| 2026-05-06 12:34 | 54.34010 | -60.80098 | 30622 ft | 579 kts | 75° |
| 2026-05-06 12:35 | 54.36649 | -60.67121 | 30614 ft | 575 kts | 75° |
| 2026-05-06 12:35 | 54.39257 | -60.54193 | 30606 ft | 572 kts | 75° |
| 2026-05-06 12:36 | 54.41836 | -60.41315 | 30613 ft | 570 kts | 76° |
| 2026-05-06 12:36 | 54.44401 | -60.28413 | 30610 ft | 581 kts | 76° |
| 2026-05-06 12:37 | 54.47017 | -60.15201 | 30628 ft | 583 kts | 76° |
| 2026-05-06 12:37 | 54.49778 | -60.02032 | 30600 ft | 582 kts | 70° |
| 2026-05-06 12:38 | 54.53552 | -59.89727 | 30603 ft | 582 kts | 59° |
| 2026-05-06 12:38 | 54.57879 | -59.78082 | 30606 ft | 581 kts | 58° |
| 2026-05-06 12:39 | 54.62227 | -59.66309 | 30626 ft | 582 kts | 59° |
| 2026-05-06 12:39 | 54.66521 | -59.54446 | 30597 ft | 583 kts | 59° |
| 2026-05-06 12:40 | 54.70781 | -59.42534 | 30506 ft | 583 kts | 59° |
| 2026-05-06 12:40 | 54.75033 | -59.30586 | 30556 ft | 583 kts | 59° |
| 2026-05-06 12:41 | 54.79281 | -59.18608 | 30593 ft | 584 kts | 60° |
| 2026-05-06 12:41 | 54.83534 | -59.06567 | 30604 ft | 589 kts | 60° |
| 2026-05-06 12:42 | 54.85682 | -59.00462 | 30706 ft | 597 kts | 60° |
| 2026-05-06 12:42 | 54.87849 | -58.94288 | 31038 ft | 599 kts | 60° |
| 2026-05-06 12:42 | 54.90004 | -58.88131 | 31687 ft | 593 kts | 60° |
| 2026-05-06 12:42 | 54.92118 | -58.82082 | 32670 ft | 579 kts | 60° |
| 2026-05-06 12:43 | 54.94179 | -58.76171 | 33744 ft | 563 kts | 60° |
| 2026-05-06 12:43 | 54.96186 | -58.70402 | 34373 ft | 554 kts | 60° |
| 2026-05-06 12:43 | 54.98170 | -58.64682 | 34619 ft | 550 kts | 60° |
| 2026-05-06 12:43 | 55.00146 | -58.58965 | 34569 ft | 551 kts | 60° |
| 2026-05-06 12:44 | 55.04079 | -58.47547 | 34592 ft | 549 kts | 60° |
| 2026-05-06 12:44 | 55.07999 | -58.36114 | 34593 ft | 549 kts | 60° |
| 2026-05-06 12:45 | 55.11909 | -58.24663 | 34527 ft | 549 kts | 61° |
| 2026-05-06 12:46 | 55.17769 | -58.07402 | 34597 ft | 553 kts | 61° |
| 2026-05-06 12:46 | 55.21692 | -57.95772 | 34606 ft | 557 kts | 61° |
| 2026-05-06 12:47 | 55.25631 | -57.84045 | 34601 ft | 559 kts | 62° |
| 2026-05-06 12:47 | 55.29573 | -57.72251 | 34600 ft | 561 kts | 62° |
| 2026-05-06 12:48 | 55.33508 | -57.60417 | 34595 ft | 561 kts | 62° |
| 2026-05-06 12:48 | 55.37431 | -57.48564 | 34602 ft | 560 kts | 62° |
| 2026-05-06 12:49 | 55.41332 | -57.36720 | 34599 ft | 559 kts | 62° |
| 2026-05-06 12:49 | 55.45182 | -57.24970 | 34608 ft | 556 kts | 62° |
| 2026-05-06 12:50 | 55.49029 | -57.13171 | 34606 ft | 554 kts | 62° |
| 2026-05-06 12:50 | 55.52861 | -57.01364 | 34576 ft | 557 kts | 62° |
| 2026-05-06 12:51 | 55.56739 | -56.89382 | 34619 ft | 565 kts | 62° |
| 2026-05-06 12:51 | 55.60637 | -56.77328 | 34617 ft | 564 kts | 63° |
| 2026-05-06 12:52 | 55.64505 | -56.65309 | 34611 ft | 560 kts | 63° |
| 2026-05-06 12:52 | 55.68332 | -56.53345 | 34621 ft | 556 kts | 63° |
| 2026-05-06 12:53 | 55.72124 | -56.41426 | 34632 ft | 554 kts | 63° |
| 2026-05-06 12:53 | 55.75888 | -56.29532 | 34622 ft | 552 kts | 63° |
| 2026-05-06 12:54 | 55.79633 | -56.17639 | 34631 ft | 551 kts | 63° |
| 2026-05-06 12:54 | 55.83367 | -56.05722 | 34661 ft | 552 kts | 64° |
| 2026-05-06 12:55 | 55.87094 | -55.93771 | 34650 ft | 553 kts | 64° |
| 2026-05-06 12:55 | 55.90819 | -55.81766 | 34591 ft | 555 kts | 63° |
| 2026-05-06 12:56 | 55.94565 | -55.69624 | 34665 ft | 562 kts | 63° |
| 2026-05-06 12:56 | 55.98329 | -55.57368 | 34679 ft | 563 kts | 63° |
| 2026-05-06 12:57 | 56.02077 | -55.45105 | 34664 ft | 562 kts | 64° |
| 2026-05-06 12:57 | 56.05806 | -55.32840 | 34681 ft | 560 kts | 64° |
| 2026-05-06 12:58 | 56.09511 | -55.20589 | 34695 ft | 559 kts | 64° |
| 2026-05-06 12:58 | 56.13196 | -55.08337 | 34692 ft | 558 kts | 64° |
| 2026-05-06 12:59 | 56.16861 | -54.96089 | 34696 ft | 557 kts | 64° |
| 2026-05-06 12:59 | 56.20507 | -54.83838 | 34703 ft | 556 kts | 64° |
| 2026-05-06 13:00 | 56.24139 | -54.71574 | 34708 ft | 556 kts | 64° |
| 2026-05-06 13:00 | 56.27733 | -54.59374 | 34669 ft | 556 kts | 64° |
| 2026-05-06 13:01 | 56.31338 | -54.47070 | 34727 ft | 556 kts | 63° |
| 2026-05-06 13:01 | 56.34937 | -54.34722 | 34741 ft | 557 kts | 63° |
| 2026-05-06 13:02 | 56.38531 | -54.22325 | 34741 ft | 558 kts | 63° |
| 2026-05-06 13:02 | 56.42121 | -54.09878 | 34751 ft | 559 kts | 63° |
| 2026-05-06 13:03 | 56.45702 | -53.97396 | 34758 ft | 560 kts | 64° |
| 2026-05-06 13:03 | 56.49272 | -53.84886 | 34758 ft | 560 kts | 64° |
| 2026-05-06 13:04 | 56.52832 | -53.72341 | 34773 ft | 559 kts | 64° |
| 2026-05-06 13:04 | 56.56368 | -53.59810 | 34775 ft | 558 kts | 64° |
| 2026-05-06 13:05 | 56.59889 | -53.47268 | 34796 ft | 557 kts | 64° |
| 2026-05-06 13:05 | 56.63392 | -53.34723 | 34801 ft | 557 kts | 64° |
| 2026-05-06 13:06 | 56.66875 | -53.22175 | 34812 ft | 555 kts | 63° |
| 2026-05-06 13:06 | 56.70336 | -53.09639 | 34829 ft | 554 kts | 63° |
| 2026-05-06 13:07 | 56.73780 | -52.97099 | 34838 ft | 553 kts | 63° |
| 2026-05-06 13:07 | 56.77205 | -52.84561 | 34852 ft | 552 kts | 63° |
| 2026-05-06 13:08 | 56.80616 | -52.72006 | 34851 ft | 552 kts | 63° |
| 2026-05-06 13:08 | 56.84009 | -52.59445 | 34878 ft | 551 kts | 63° |
| 2026-05-06 13:09 | 56.87386 | -52.46875 | 34877 ft | 551 kts | 63° |
| 2026-05-06 13:09 | 56.90746 | -52.34298 | 34886 ft | 550 kts | 63° |
| 2026-05-06 13:10 | 56.94070 | -52.21787 | 34898 ft | 550 kts | 63° |
| 2026-05-06 13:10 | 56.97400 | -52.09184 | 34905 ft | 549 kts | 63° |
| 2026-05-06 13:11 | 57.00714 | -51.96569 | 34914 ft | 549 kts | 63° |
| 2026-05-06 13:11 | 57.04010 | -51.83953 | 34909 ft | 547 kts | 62° |
| 2026-05-06 13:12 | 57.07282 | -51.71355 | 34929 ft | 545 kts | 63° |
| 2026-05-06 13:12 | 57.10533 | -51.58770 | 34931 ft | 544 kts | 63° |
| 2026-05-06 13:13 | 57.13737 | -51.46297 | 34938 ft | 532 kts | 63° |
| 2026-05-06 13:13 | 57.16865 | -51.34047 | 34956 ft | 528 kts | 63° |
| 2026-05-06 13:14 | 57.19985 | -51.21776 | 34960 ft | 529 kts | 63° |
| 2026-05-06 13:14 | 57.23099 | -51.09453 | 34972 ft | 530 kts | 63° |
| 2026-05-06 13:15 | 57.26208 | -50.97079 | 34987 ft | 531 kts | 63° |
| 2026-05-06 13:15 | 57.29297 | -50.84714 | 34987 ft | 529 kts | 63° |
| 2026-05-06 13:16 | 57.32360 | -50.72383 | 34980 ft | 526 kts | 63° |
| 2026-05-06 13:16 | 57.35397 | -50.60091 | 34995 ft | 524 kts | 63° |
| 2026-05-06 13:17 | 57.38412 | -50.47819 | 34995 ft | 522 kts | 64° |
| 2026-05-06 13:17 | 57.41383 | -50.35652 | 34999 ft | 510 kts | 63° |
| 2026-05-06 13:18 | 57.44277 | -50.23742 | 35011 ft | 505 kts | 63° |
| 2026-05-06 13:18 | 57.47157 | -50.11834 | 35027 ft | 506 kts | 64° |
| 2026-05-06 13:19 | 57.50024 | -49.99862 | 35026 ft | 508 kts | 65° |
| 2026-05-06 13:19 | 57.52122 | -49.89637 | 35041 ft | 510 kts | 68° |
| 2026-05-06 13:20 | 57.54898 | -49.75172 | 35040 ft | 511 kts | 68° |
| 2026-05-06 13:20 | 57.57269 | -49.62756 | 35049 ft | 507 kts | 68° |
| 2026-05-06 13:21 | 57.59256 | -49.52386 | 35049 ft | 507 kts | 68° |
| 2026-05-06 13:21 | 57.61628 | -49.40003 | 35048 ft | 507 kts | 68° |
| 2026-05-06 13:22 | 57.63979 | -49.27677 | 35038 ft | 508 kts | 68° |
| 2026-05-06 13:22 | 57.66331 | -49.15253 | 35069 ft | 507 kts | 68° |
| 2026-05-06 13:23 | 57.68657 | -49.02858 | 35077 ft | 504 kts | 68° |
| 2026-05-06 13:23 | 57.70966 | -48.90487 | 35074 ft | 504 kts | 69° |
| 2026-05-06 13:24 | 57.73268 | -48.78068 | 35076 ft | 506 kts | 68° |
| 2026-05-06 13:24 | 57.75561 | -48.65625 | 35094 ft | 506 kts | 69° |
| 2026-05-06 13:25 | 57.77842 | -48.53154 | 35099 ft | 506 kts | 68° |
| 2026-05-06 13:25 | 57.80111 | -48.40686 | 35107 ft | 505 kts | 68° |
| 2026-05-06 13:26 | 57.82365 | -48.28211 | 35100 ft | 505 kts | 69° |
| 2026-05-06 13:26 | 57.84605 | -48.15722 | 35109 ft | 505 kts | 69° |
| 2026-05-06 13:27 | 57.86837 | -48.03202 | 35115 ft | 506 kts | 69° |
| 2026-05-06 13:27 | 57.89054 | -47.90671 | 35121 ft | 503 kts | 69° |
| 2026-05-06 13:28 | 57.91228 | -47.78277 | 35108 ft | 497 kts | 69° |
| 2026-05-06 13:28 | 57.93389 | -47.65909 | 35123 ft | 500 kts | 69° |
| 2026-05-06 13:29 | 57.95561 | -47.53395 | 35133 ft | 505 kts | 70° |
| 2026-05-06 13:29 | 57.97734 | -47.40793 | 35146 ft | 506 kts | 69° |
| 2026-05-06 13:30 | 57.99884 | -47.28233 | 35132 ft | 494 kts | 71° |
| 2026-05-06 13:30 | 58.00918 | -47.22144 | 35140 ft | 481 kts | 71° |
| 2026-05-06 13:30 | 58.01927 | -47.16173 | 35137 ft | 477 kts | 71° |
| 2026-05-06 13:31 | 58.03958 | -47.04135 | 35154 ft | 487 kts | 71° |
| 2026-05-06 13:31 | 58.06003 | -46.91956 | 35157 ft | 492 kts | 71° |
| 2026-05-06 13:32 | 58.08049 | -46.79664 | 35156 ft | 489 kts | 71° |
| 2026-05-06 13:32 | 58.10077 | -46.67407 | 35178 ft | 485 kts | 72° |
| 2026-05-06 13:33 | 58.12042 | -46.55420 | 35155 ft | 472 kts | 72° |
| 2026-05-06 13:33 | 58.13976 | -46.43545 | 35180 ft | 473 kts | 72° |
| 2026-05-06 13:34 | 58.15907 | -46.31621 | 35179 ft | 474 kts | 73° |
| 2026-05-06 13:34 | 58.17833 | -46.19645 | 35191 ft | 476 kts | 73° |
| 2026-05-06 13:35 | 58.19753 | -46.07628 | 35188 ft | 477 kts | 73° |
| 2026-05-06 13:35 | 58.21641 | -45.95744 | 35177 ft | 462 kts | 74° |
| 2026-05-06 13:36 | 58.23463 | -45.84180 | 35193 ft | 457 kts | 75° |
| 2026-05-06 13:36 | 58.25276 | -45.72570 | 35197 ft | 461 kts | 75° |
| 2026-05-06 13:37 | 58.27095 | -45.60859 | 35209 ft | 464 kts | 76° |
| 2026-05-06 13:37 | 58.28909 | -45.49098 | 35204 ft | 463 kts | 76° |
| 2026-05-06 13:38 | 58.30711 | -45.37356 | 35229 ft | 460 kts | 76° |
| 2026-05-06 13:38 | 58.32473 | -45.25786 | 35225 ft | 453 kts | 75° |
| 2026-05-06 13:39 | 58.34199 | -45.14362 | 35227 ft | 450 kts | 76° |
| 2026-05-06 13:39 | 58.35919 | -45.02896 | 35233 ft | 451 kts | 76° |
| 2026-05-06 13:40 | 58.37645 | -44.91303 | 35231 ft | 452 kts | 75° |
| 2026-05-06 13:40 | 58.39347 | -44.79805 | 35238 ft | 449 kts | 76° |
| 2026-05-06 13:41 | 58.41037 | -44.68309 | 35243 ft | 452 kts | 75° |
| 2026-05-06 13:41 | 58.42728 | -44.56721 | 35248 ft | 454 kts | 75° |
| 2026-05-06 13:42 | 58.44410 | -44.45111 | 35242 ft | 453 kts | 76° |
| 2026-05-06 13:42 | 58.46065 | -44.33601 | 35257 ft | 452 kts | 76° |
| 2026-05-06 13:43 | 58.47721 | -44.22010 | 35260 ft | 454 kts | 76° |
| 2026-05-06 13:43 | 58.49372 | -44.10360 | 35289 ft | 453 kts | 75° |
| 2026-05-06 13:44 | 58.50995 | -43.98827 | 35276 ft | 446 kts | 75° |
| 2026-05-06 13:44 | 58.52592 | -43.87402 | 35269 ft | 444 kts | 75° |
| 2026-05-06 13:45 | 58.54181 | -43.75944 | 35293 ft | 447 kts | 75° |
| 2026-05-06 13:45 | 58.56562 | -43.58613 | 35279 ft | 453 kts | 75° |
| 2026-05-06 13:46 | 58.58156 | -43.46905 | 35285 ft | 453 kts | 76° |
| 2026-05-06 13:46 | 58.59732 | -43.35239 | 35288 ft | 452 kts | 75° |
| 2026-05-06 13:47 | 58.61302 | -43.23533 | 35299 ft | 456 kts | 75° |
| 2026-05-06 13:47 | 58.62865 | -43.11787 | 35299 ft | 450 kts | 75° |
| 2026-05-06 13:48 | 58.64387 | -43.00256 | 35309 ft | 445 kts | 75° |
| 2026-05-06 13:48 | 58.65904 | -42.88689 | 35313 ft | 450 kts | 76° |
| 2026-05-06 13:49 | 58.67419 | -42.77029 | 35350 ft | 450 kts | 75° |
| 2026-05-06 13:49 | 58.68929 | -42.65324 | 35330 ft | 453 kts | 75° |
| 2026-05-06 13:50 | 58.70440 | -42.53521 | 35327 ft | 457 kts | 75° |
| 2026-05-06 13:50 | 58.71946 | -42.41652 | 35331 ft | 457 kts | 75° |
| 2026-05-06 13:51 | 58.73436 | -42.29809 | 35327 ft | 454 kts | 75° |
| 2026-05-06 13:51 | 58.74910 | -42.18014 | 35338 ft | 452 kts | 75° |
| 2026-05-06 13:52 | 58.76355 | -42.06344 | 35335 ft | 448 kts | 75° |
| 2026-05-06 13:52 | 58.77789 | -41.94669 | 35341 ft | 449 kts | 75° |
| 2026-05-06 13:53 | 58.79227 | -41.82884 | 35349 ft | 453 kts | 76° |
| 2026-05-06 13:53 | 58.80664 | -41.71001 | 35348 ft | 456 kts | 75° |
| 2026-05-06 13:54 | 58.82094 | -41.59067 | 35347 ft | 456 kts | 75° |
| 2026-05-06 13:54 | 58.83511 | -41.47126 | 35343 ft | 456 kts | 76° |
| 2026-05-06 13:55 | 58.84919 | -41.35170 | 35353 ft | 456 kts | 75° |
| 2026-05-06 13:55 | 58.86314 | -41.23239 | 35345 ft | 453 kts | 75° |
| 2026-05-06 13:56 | 58.87684 | -41.11409 | 35353 ft | 450 kts | 75° |
| 2026-05-06 13:56 | 58.89042 | -40.99560 | 35352 ft | 451 kts | 76° |
| 2026-05-06 13:57 | 58.90393 | -40.87700 | 35348 ft | 452 kts | 76° |
| 2026-05-06 13:57 | 58.91737 | -40.75779 | 35351 ft | 456 kts | 76° |
| 2026-05-06 13:58 | 58.93088 | -40.63692 | 35350 ft | 462 kts | 76° |
| 2026-05-06 13:58 | 58.94426 | -40.51588 | 35357 ft | 462 kts | 76° |
| 2026-05-06 13:59 | 58.95758 | -40.39437 | 35357 ft | 460 kts | 76° |
| 2026-05-06 13:59 | 58.97075 | -40.27312 | 35351 ft | 459 kts | 76° |
| 2026-05-06 14:00 | 58.98381 | -40.15208 | 35345 ft | 458 kts | 75° |
| 2026-05-06 14:00 | 58.99672 | -40.03103 | 35365 ft | 459 kts | 75° |
| 2026-05-06 14:01 | 59.00435 | -39.90683 | 35360 ft | 470 kts | 82° |
| 2026-05-06 14:01 | 59.00871 | -39.77978 | 35368 ft | 473 kts | 83° |
| 2026-05-06 14:02 | 59.01300 | -39.65232 | 35355 ft | 474 kts | 83° |
| 2026-05-06 14:02 | 59.01740 | -39.52493 | 35355 ft | 473 kts | 82° |
| 2026-05-06 14:03 | 59.02177 | -39.39768 | 35361 ft | 472 kts | 83° |
| 2026-05-06 14:03 | 59.02603 | -39.27088 | 35365 ft | 470 kts | 85° |
| 2026-05-06 14:04 | 59.03017 | -39.14413 | 35357 ft | 471 kts | 84° |
| 2026-05-06 14:04 | 59.03416 | -39.01673 | 35364 ft | 473 kts | 84° |
| 2026-05-06 14:05 | 59.03807 | -38.88877 | 35357 ft | 476 kts | 85° |
| 2026-05-06 14:05 | 59.04189 | -38.76011 | 35535 ft | 479 kts | 84° |
| 2026-05-06 14:06 | 59.04375 | -38.69546 | 35839 ft | 479 kts | 84° |
| 2026-05-06 14:06 | 59.04556 | -38.63084 | 36158 ft | 479 kts | 83° |
| 2026-05-06 14:06 | 59.04735 | -38.56623 | 36426 ft | 480 kts | 83° |
| 2026-05-06 14:06 | 59.04909 | -38.50222 | 36638 ft | 482 kts | 84° |
| 2026-05-06 14:07 | 59.05083 | -38.43706 | 36833 ft | 485 kts | 84° |
| 2026-05-06 14:07 | 59.05256 | -38.37153 | 37008 ft | 487 kts | 84° |
| 2026-05-06 14:07 | 59.05427 | -38.30577 | 37266 ft | 487 kts | 85° |
| 2026-05-06 14:07 | 59.05594 | -38.23975 | 37304 ft | 490 kts | 84° |
| 2026-05-06 14:08 | 59.05915 | -38.10752 | 37354 ft | 490 kts | 85° |
| 2026-05-06 14:08 | 59.06221 | -37.97566 | 37357 ft | 487 kts | 85° |
| 2026-05-06 14:09 | 59.06515 | -37.84457 | 37369 ft | 485 kts | 85° |
| 2026-05-06 14:09 | 59.06750 | -37.73584 | 37360 ft | 484 kts | 85° |
| 2026-05-06 14:10 | 59.07020 | -37.60501 | 37354 ft | 485 kts | 85° |
| 2026-05-06 14:10 | 59.07277 | -37.47384 | 37358 ft | 486 kts | 85° |
| 2026-05-06 14:11 | 59.07520 | -37.34233 | 37357 ft | 488 kts | 85° |
| 2026-05-06 14:11 | 59.07752 | -37.21037 | 37357 ft | 489 kts | 85° |
| 2026-05-06 14:12 | 59.07970 | -37.07808 | 37351 ft | 490 kts | 85° |
| 2026-05-06 14:12 | 59.08175 | -36.94555 | 37371 ft | 491 kts | 85° |
| 2026-05-06 14:13 | 59.08367 | -36.81274 | 37353 ft | 492 kts | 85° |
| 2026-05-06 14:13 | 59.08546 | -36.67970 | 37343 ft | 492 kts | 86° |
| 2026-05-06 14:14 | 59.08711 | -36.54657 | 37347 ft | 492 kts | 86° |
| 2026-05-06 14:14 | 59.08862 | -36.41345 | 37346 ft | 492 kts | 86° |
| 2026-05-06 14:15 | 59.08999 | -36.28127 | 37345 ft | 492 kts | 86° |
| 2026-05-06 14:15 | 59.09124 | -36.14822 | 37367 ft | 492 kts | 86° |
| 2026-05-06 14:16 | 59.09235 | -36.01508 | 37344 ft | 493 kts | 86° |
| 2026-05-06 14:16 | 59.09332 | -35.88176 | 37336 ft | 493 kts | 86° |
| 2026-05-06 14:17 | 59.09416 | -35.74850 | 37332 ft | 493 kts | 86° |
| 2026-05-06 14:17 | 59.09486 | -35.61522 | 37332 ft | 493 kts | 86° |
| 2026-05-06 14:18 | 59.09542 | -35.48194 | 37331 ft | 493 kts | 87° |
| 2026-05-06 14:18 | 59.09584 | -35.34848 | 37342 ft | 494 kts | 87° |
| 2026-05-06 14:19 | 59.09614 | -35.21473 | 37321 ft | 495 kts | 87° |
| 2026-05-06 14:19 | 59.09629 | -35.08079 | 37316 ft | 496 kts | 87° |
| 2026-05-06 14:20 | 59.09630 | -34.94671 | 37322 ft | 496 kts | 87° |
| 2026-05-06 14:20 | 59.09618 | -34.81249 | 37325 ft | 496 kts | 88° |
| 2026-05-06 14:21 | 59.09592 | -34.67809 | 37326 ft | 497 kts | 88° |
| 2026-05-06 14:21 | 59.09552 | -34.54459 | 37317 ft | 497 kts | 88° |
| 2026-05-06 14:22 | 59.09498 | -34.41014 | 37302 ft | 497 kts | 88° |
| 2026-05-06 14:22 | 59.09430 | -34.27581 | 37316 ft | 497 kts | 88° |
| 2026-05-06 14:23 | 59.09348 | -34.14146 | 37304 ft | 497 kts | 88° |
| 2026-05-06 14:23 | 59.09252 | -34.00720 | 37297 ft | 496 kts | 88° |
| 2026-05-06 14:24 | 59.09143 | -33.87304 | 37313 ft | 496 kts | 89° |
| 2026-05-06 14:24 | 59.09020 | -33.73872 | 37305 ft | 497 kts | 89° |
| 2026-05-06 14:25 | 59.08882 | -33.60426 | 37301 ft | 498 kts | 89° |
| 2026-05-06 14:25 | 59.08731 | -33.46969 | 37294 ft | 498 kts | 89° |
| 2026-05-06 14:26 | 59.08566 | -33.33503 | 37288 ft | 498 kts | 89° |
| 2026-05-06 14:26 | 59.08386 | -33.20028 | 37290 ft | 498 kts | 89° |
| 2026-05-06 14:27 | 59.08193 | -33.06655 | 37293 ft | 498 kts | 90° |
| 2026-05-06 14:27 | 59.07986 | -32.93162 | 37291 ft | 500 kts | 90° |
| 2026-05-06 14:28 | 59.07764 | -32.79651 | 37287 ft | 500 kts | 90° |
| 2026-05-06 14:28 | 59.07527 | -32.66118 | 37277 ft | 501 kts | 90° |
| 2026-05-06 14:29 | 59.07276 | -32.52581 | 37276 ft | 501 kts | 90° |
| 2026-05-06 14:29 | 59.07011 | -32.39028 | 37274 ft | 502 kts | 90° |
| 2026-05-06 14:30 | 59.06732 | -32.25478 | 37284 ft | 502 kts | 90° |
| 2026-05-06 14:30 | 59.06438 | -32.11895 | 37270 ft | 503 kts | 90° |
| 2026-05-06 14:31 | 59.06129 | -31.98304 | 37270 ft | 504 kts | 91° |
| 2026-05-06 14:31 | 59.05806 | -31.84717 | 37261 ft | 504 kts | 91° |
| 2026-05-06 14:32 | 59.05468 | -31.71114 | 37256 ft | 504 kts | 91° |
| 2026-05-06 14:32 | 59.05117 | -31.57517 | 37252 ft | 504 kts | 91° |
| 2026-05-06 14:33 | 59.04750 | -31.43916 | 37254 ft | 505 kts | 91° |
| 2026-05-06 14:33 | 59.04369 | -31.30290 | 37246 ft | 506 kts | 91° |
| 2026-05-06 14:34 | 59.03973 | -31.16645 | 37244 ft | 506 kts | 91° |
| 2026-05-06 14:34 | 59.03563 | -31.02996 | 37248 ft | 506 kts | 92° |
| 2026-05-06 14:35 | 59.03141 | -30.89444 | 37235 ft | 506 kts | 92° |
| 2026-05-06 14:35 | 59.02701 | -30.75802 | 37232 ft | 506 kts | 92° |
| 2026-05-06 14:36 | 59.02247 | -30.62145 | 37236 ft | 508 kts | 92° |
| 2026-05-06 14:36 | 59.01778 | -30.48463 | 37228 ft | 508 kts | 92° |
| 2026-05-06 14:37 | 59.01294 | -30.34772 | 37221 ft | 509 kts | 92° |
| 2026-05-06 14:37 | 59.00795 | -30.21063 | 37220 ft | 510 kts | 92° |
| 2026-05-06 14:38 | 59.00283 | -30.07344 | 37214 ft | 510 kts | 92° |
| 2026-05-06 14:38 | 59.00135 | -29.93631 | 37225 ft | 508 kts | 84° |
| 2026-05-06 14:39 | 59.00673 | -29.79975 | 37211 ft | 508 kts | 83° |
| 2026-05-06 14:39 | 59.01229 | -29.66315 | 37206 ft | 508 kts | 84° |
| 2026-05-06 14:40 | 59.01740 | -29.52636 | 37198 ft | 509 kts | 84° |
| 2026-05-06 14:40 | 59.02213 | -29.38939 | 37194 ft | 509 kts | 84° |
| 2026-05-06 14:41 | 59.02667 | -29.25229 | 37227 ft | 509 kts | 84° |
| 2026-05-06 14:41 | 59.03108 | -29.11492 | 37191 ft | 511 kts | 84° |
| 2026-05-06 14:42 | 59.03538 | -28.97716 | 37189 ft | 512 kts | 84° |
| 2026-05-06 14:42 | 59.03954 | -28.83911 | 37175 ft | 512 kts | 84° |
| 2026-05-06 14:43 | 59.04356 | -28.70083 | 37175 ft | 513 kts | 84° |
| 2026-05-06 14:43 | 59.04744 | -28.56244 | 37148 ft | 514 kts | 85° |
| 2026-05-06 14:44 | 59.05117 | -28.42376 | 37168 ft | 514 kts | 85° |
| 2026-05-06 14:45 | 59.05650 | -28.21539 | 37155 ft | 515 kts | 85° |
| 2026-05-06 14:45 | 59.05988 | -28.07618 | 37145 ft | 516 kts | 85° |
| 2026-05-06 14:46 | 59.06308 | -27.93794 | 37145 ft | 516 kts | 85° |
| 2026-05-06 14:46 | 59.06616 | -27.79848 | 37153 ft | 517 kts | 85° |
| 2026-05-06 14:47 | 59.06909 | -27.65892 | 37134 ft | 517 kts | 85° |
| 2026-05-06 14:47 | 59.07188 | -27.51915 | 37123 ft | 518 kts | 85° |
| 2026-05-06 14:48 | 59.07452 | -27.37935 | 37125 ft | 518 kts | 86° |
| 2026-05-06 14:48 | 59.07700 | -27.23942 | 37114 ft | 518 kts | 86° |
| 2026-05-06 14:49 | 59.07934 | -27.09946 | 37107 ft | 518 kts | 86° |
| 2026-05-06 14:49 | 59.08153 | -26.95958 | 37084 ft | 517 kts | 86° |
| 2026-05-06 14:50 | 59.08356 | -26.81984 | 37091 ft | 517 kts | 87° |
| 2026-05-06 14:50 | 59.08544 | -26.68018 | 37094 ft | 516 kts | 87° |
| 2026-05-06 14:51 | 59.08717 | -26.54060 | 37094 ft | 516 kts | 87° |
| 2026-05-06 14:51 | 59.08875 | -26.40104 | 37093 ft | 517 kts | 87° |
| 2026-05-06 14:52 | 59.09018 | -26.26126 | 37092 ft | 517 kts | 87° |
| 2026-05-06 14:52 | 59.09146 | -26.12225 | 37070 ft | 518 kts | 87° |
| 2026-05-06 14:53 | 59.09259 | -25.98224 | 37076 ft | 518 kts | 87° |
| 2026-05-06 14:53 | 59.09358 | -25.84205 | 37057 ft | 518 kts | 88° |
| 2026-05-06 14:54 | 59.09441 | -25.70175 | 37084 ft | 519 kts | 87° |
| 2026-05-06 14:54 | 59.09509 | -25.56128 | 37046 ft | 520 kts | 87° |
| 2026-05-06 14:55 | 59.09562 | -25.42069 | 37041 ft | 520 kts | 88° |
| 2026-05-06 14:55 | 59.09600 | -25.28008 | 37034 ft | 520 kts | 88° |
| 2026-05-06 14:56 | 59.09623 | -25.13934 | 37021 ft | 520 kts | 88° |
| 2026-05-06 14:56 | 59.09630 | -24.99859 | 37033 ft | 521 kts | 88° |
| 2026-05-06 14:57 | 59.09623 | -24.85767 | 37010 ft | 521 kts | 88° |
| 2026-05-06 14:57 | 59.09600 | -24.71664 | 36994 ft | 521 kts | 88° |
| 2026-05-06 14:58 | 59.09561 | -24.57562 | 36982 ft | 521 kts | 88° |
| 2026-05-06 14:58 | 59.09508 | -24.43454 | 36966 ft | 522 kts | 88° |